Back to Top

Language: 

My Weather Underground Personal Weather Station Historical Data with Graphs...

Delerius Weather Station Historical Data
Daily Summary for January 1, 2018 Units:  Both    English   Metric
« Previous Day
Next Day »
Daily Weekly Monthly Yearly Custom
  High: Low: Average:
Temperature: 46.0 °F /  7.8 °C 41.0 °F /  5 °C 42.6 °F /  5.9 °C
Dew Point: 40.6 °F /  4.8 °C 35.5 °F /  1.9 °C 38.1 °F /  3.4 °C
Humidity: 93 % 77 % 84 %
Wind Speed: 19.0 mph /  30.6 km/h - 9.7 mph /  15.6 km/h
Wind Gust: 29.0 mph /  46.7 km/h - -
Wind:- - WSW
Pressure: 29.68 in /  1005 hPa 29.25 in /  990.4 hPa -
Precipitation: 0.07 in /  1.78 mm    
Historical Graphs
 
 
Tabular Data for January 1, 2018
Time Temperature Dew Point Pressure Wind Wind Speed Wind Gust Humidity Rainfall Rate (Hourly) solar Conditions
00:01 41.7 °F /  5.4 °C 37.8 °F /  3.2 °C 29.25 in /  990.4 hPa West 14.0 mph /  22.5 km/h 25.0 mph /  40.2 km/h 86 % 0.00 in /  0 mm 0 W/m2
00:06 41.5 °F /  5.3 °C 37.7 °F /  3.2 °C 29.26 in /  990.7 hPa West 15.0 mph /  24.1 km/h 25.0 mph /  40.2 km/h 86 % 0.00 in /  0 mm 0 W/m2
00:11 41.7 °F /  5.4 °C 37.8 °F /  3.2 °C 29.26 in /  990.7 hPa West 14.0 mph /  22.5 km/h 22.0 mph /  35.4 km/h 86 % 0.00 in /  0 mm 0 W/m2
00:12 41.7 °F /  5.4 °C 37.8 °F /  3.2 °C 29.26 in /  990.7 hPa West 14.0 mph /  22.5 km/h 21.0 mph /  33.8 km/h 86 % 0.00 in /  0 mm 0 W/m2
00:16 41.7 °F /  5.4 °C 37.8 °F /  3.2 °C 29.26 in /  990.7 hPa West 15.0 mph /  24.1 km/h 23.0 mph /  37 km/h 86 % 0.00 in /  0 mm 0 W/m2
00:19 41.7 °F /  5.4 °C 37.8 °F /  3.2 °C 29.26 in /  990.7 hPa West 12.0 mph /  19.3 km/h 19.0 mph /  30.6 km/h 86 % 0.00 in /  0 mm 0 W/m2
00:24 41.7 °F /  5.4 °C 37.8 °F /  3.2 °C 29.26 in /  990.7 hPa West 14.0 mph /  22.5 km/h 22.0 mph /  35.4 km/h 86 % 0.00 in /  0 mm 0 W/m2
00:25 41.7 °F /  5.4 °C 37.8 °F /  3.2 °C 29.26 in /  990.7 hPa West 14.0 mph /  22.5 km/h 21.0 mph /  33.8 km/h 86 % 0.00 in /  0 mm 0 W/m2
00:30 41.7 °F /  5.4 °C 37.8 °F /  3.2 °C 29.26 in /  990.7 hPa WSW 14.0 mph /  22.5 km/h 24.0 mph /  38.6 km/h 86 % 0.00 in /  0 mm 0 W/m2
00:31 41.7 °F /  5.4 °C 37.8 °F /  3.2 °C 29.26 in /  990.7 hPa WSW 15.0 mph /  24.1 km/h 24.0 mph /  38.6 km/h 86 % 0.00 in /  0 mm 0 W/m2
00:36 41.7 °F /  5.4 °C 37.8 °F /  3.2 °C 29.26 in /  990.7 hPa West 11.0 mph /  17.7 km/h 18.0 mph /  29 km/h 86 % 0.00 in /  0 mm 0 W/m2
00:38 41.7 °F /  5.4 °C 37.8 °F /  3.2 °C 29.26 in /  990.7 hPa West 11.0 mph /  17.7 km/h 18.0 mph /  29 km/h 86 % 0.00 in /  0 mm 0 W/m2
00:41 41.7 °F /  5.4 °C 37.8 °F /  3.2 °C 29.27 in /  991.1 hPa WSW 12.0 mph /  19.3 km/h 20.0 mph /  32.2 km/h 86 % 0.00 in /  0 mm 0 W/m2
00:46 41.7 °F /  5.4 °C 37.8 °F /  3.2 °C 29.26 in /  990.7 hPa West 13.0 mph /  20.9 km/h 23.0 mph /  37 km/h 86 % 0.00 in /  0 mm 0 W/m2
00:47 41.7 °F /  5.4 °C 37.8 °F /  3.2 °C 29.27 in /  991.1 hPa West 12.0 mph /  19.3 km/h 21.0 mph /  33.8 km/h 86 % 0.00 in /  0 mm 0 W/m2
00:52 41.7 °F /  5.4 °C 37.8 °F /  3.2 °C 29.26 in /  990.7 hPa West 11.0 mph /  17.7 km/h 18.0 mph /  29 km/h 86 % 0.00 in /  0 mm 0 W/m2
00:55 41.7 °F /  5.4 °C 37.8 °F /  3.2 °C 29.27 in /  991.1 hPa West 14.0 mph /  22.5 km/h 23.0 mph /  37 km/h 86 % 0.00 in /  0 mm 0 W/m2
01:00 41.7 °F /  5.4 °C 37.5 °F /  3.1 °C 29.27 in /  991.1 hPa WSW 12.0 mph /  19.3 km/h 21.0 mph /  33.8 km/h 85 % 0.00 in /  0 mm 0 W/m2
01:02 41.7 °F /  5.4 °C 37.5 °F /  3.1 °C 29.27 in /  991.1 hPa WSW 10.0 mph /  16.1 km/h 14.0 mph /  22.5 km/h 85 % 0.00 in /  0 mm 0 W/m2
01:07 41.5 °F /  5.3 °C 37.1 °F /  2.8 °C 29.27 in /  991.1 hPa WSW 10.0 mph /  16.1 km/h 16.0 mph /  25.7 km/h 84 % 0.00 in /  0 mm 0 W/m2
01:12 41.5 °F /  5.3 °C 37.1 °F /  2.8 °C 29.27 in /  991.1 hPa WSW 11.0 mph /  17.7 km/h 18.0 mph /  29 km/h 84 % 0.00 in /  0 mm 0 W/m2
01:15 41.4 °F /  5.2 °C 36.6 °F /  2.6 °C 29.27 in /  991.1 hPa WSW 9.0 mph /  14.5 km/h 15.0 mph /  24.1 km/h 83 % 0.00 in /  0 mm 0 W/m2
01:20 41.4 °F /  5.2 °C 36.6 °F /  2.6 °C 29.27 in /  991.1 hPa WSW 12.0 mph /  19.3 km/h 19.0 mph /  30.6 km/h 83 % 0.00 in /  0 mm 0 W/m2
01:21 41.4 °F /  5.2 °C 36.6 °F /  2.6 °C 29.27 in /  991.1 hPa WSW 12.0 mph /  19.3 km/h 19.0 mph /  30.6 km/h 83 % 0.00 in /  0 mm 0 W/m2
01:26 41.4 °F /  5.2 °C 36.3 °F /  2.4 °C 29.27 in /  991.1 hPa WSW 14.0 mph /  22.5 km/h 23.0 mph /  37 km/h 82 % 0.00 in /  0 mm 0 W/m2
01:28 41.4 °F /  5.2 °C 36.3 °F /  2.4 °C 29.27 in /  991.1 hPa WSW 11.0 mph /  17.7 km/h 20.0 mph /  32.2 km/h 82 % 0.00 in /  0 mm 0 W/m2
01:33 41.2 °F /  5.1 °C 36.1 °F /  2.3 °C 29.26 in /  990.7 hPa WSW 14.0 mph /  22.5 km/h 19.0 mph /  30.6 km/h 82 % 0.00 in /  0 mm 0 W/m2
01:38 41.4 °F /  5.2 °C 36.3 °F /  2.4 °C 29.27 in /  991.1 hPa WSW 11.0 mph /  17.7 km/h 19.0 mph /  30.6 km/h 82 % 0.00 in /  0 mm 0 W/m2
01:39 41.4 °F /  5.2 °C 36.3 °F /  2.4 °C 29.27 in /  991.1 hPa WSW 12.0 mph /  19.3 km/h 23.0 mph /  37 km/h 82 % 0.00 in /  0 mm 0 W/m2
01:44 41.4 °F /  5.2 °C 36.3 °F /  2.4 °C 29.27 in /  991.1 hPa WSW 9.0 mph /  14.5 km/h 16.0 mph /  25.7 km/h 82 % 0.00 in /  0 mm 0 W/m2
01:48 41.2 °F /  5.1 °C 36.1 °F /  2.3 °C 29.27 in /  991.1 hPa WSW 10.0 mph /  16.1 km/h 19.0 mph /  30.6 km/h 82 % 0.00 in /  0 mm 0 W/m2
01:51 41.4 °F /  5.2 °C 36.3 °F /  2.4 °C 29.26 in /  990.7 hPa WSW 10.0 mph /  16.1 km/h 15.0 mph /  24.1 km/h 82 % 0.00 in /  0 mm 0 W/m2
01:55 41.2 °F /  5.1 °C 36.1 °F /  2.3 °C 29.26 in /  990.7 hPa WSW 10.0 mph /  16.1 km/h 16.0 mph /  25.7 km/h 82 % 0.00 in /  0 mm 0 W/m2
02:00 41.2 °F /  5.1 °C 36.1 °F /  2.3 °C 29.26 in /  990.7 hPa WSW 10.0 mph /  16.1 km/h 18.0 mph /  29 km/h 82 % 0.00 in /  0 mm 0 W/m2
02:03 41.2 °F /  5.1 °C 36.1 °F /  2.3 °C 29.27 in /  991.1 hPa WSW 13.0 mph /  20.9 km/h 23.0 mph /  37 km/h 82 % 0.00 in /  0 mm 0 W/m2
02:05 41.4 °F /  5.2 °C 36.3 °F /  2.4 °C 29.27 in /  991.1 hPa WSW 11.0 mph /  17.7 km/h 16.0 mph /  25.7 km/h 82 % 0.00 in /  0 mm 0 W/m2
02:09 41.4 °F /  5.2 °C 36.3 °F /  2.4 °C 29.27 in /  991.1 hPa WSW 12.0 mph /  19.3 km/h 20.0 mph /  32.2 km/h 82 % 0.00 in /  0 mm 0 W/m2
02:14 41.5 °F /  5.3 °C 36.1 °F /  2.3 °C 29.27 in /  991.1 hPa WSW 15.0 mph /  24.1 km/h 25.0 mph /  40.2 km/h 81 % 0.00 in /  0 mm 0 W/m2
02:19 41.5 °F /  5.3 °C 36.1 °F /  2.3 °C 29.27 in /  991.1 hPa WSW 13.0 mph /  20.9 km/h 22.0 mph /  35.4 km/h 81 % 0.00 in /  0 mm 0 W/m2
02:20 41.7 °F /  5.4 °C 36.3 °F /  2.4 °C 29.27 in /  991.1 hPa WSW 16.0 mph /  25.7 km/h 29.0 mph /  46.7 km/h 81 % 0.00 in /  0 mm 0 W/m2
02:25 41.7 °F /  5.4 °C 36.3 °F /  2.4 °C 29.27 in /  991.1 hPa WSW 14.0 mph /  22.5 km/h 24.0 mph /  38.6 km/h 81 % 0.00 in /  0 mm 0 W/m2
02:27 41.7 °F /  5.4 °C 36.3 °F /  2.4 °C 29.27 in /  991.1 hPa WSW 12.0 mph /  19.3 km/h 19.0 mph /  30.6 km/h 81 % 0.00 in /  0 mm 0 W/m2
02:31 41.7 °F /  5.4 °C 36.3 °F /  2.4 °C 29.27 in /  991.1 hPa WSW 14.0 mph /  22.5 km/h 26.0 mph /  41.8 km/h 81 % 0.00 in /  0 mm 0 W/m2
02:33 41.5 °F /  5.3 °C 36.1 °F /  2.3 °C 29.27 in /  991.1 hPa WSW 12.0 mph /  19.3 km/h 23.0 mph /  37 km/h 81 % 0.00 in /  0 mm 0 W/m2
02:37 41.7 °F /  5.4 °C 36.3 °F /  2.4 °C 29.27 in /  991.1 hPa WSW 15.0 mph /  24.1 km/h 23.0 mph /  37 km/h 81 % 0.00 in /  0 mm 0 W/m2
02:39 41.7 °F /  5.4 °C 36.3 °F /  2.4 °C 29.27 in /  991.1 hPa WSW 15.0 mph /  24.1 km/h 23.0 mph /  37 km/h 81 % 0.00 in /  0 mm 0 W/m2
02:44 41.7 °F /  5.4 °C 36.3 °F /  2.4 °C 29.27 in /  991.1 hPa WSW 14.0 mph /  22.5 km/h 21.0 mph /  33.8 km/h 81 % 0.00 in /  0 mm 0 W/m2
02:46 41.7 °F /  5.4 °C 36.3 °F /  2.4 °C 29.27 in /  991.1 hPa WSW 13.0 mph /  20.9 km/h 19.0 mph /  30.6 km/h 81 % 0.00 in /  0 mm 0 W/m2
02:51 41.7 °F /  5.4 °C 36.3 °F /  2.4 °C 29.27 in /  991.1 hPa WSW 12.0 mph /  19.3 km/h 18.0 mph /  29 km/h 81 % 0.00 in /  0 mm 0 W/m2
02:53 41.5 °F /  5.3 °C 36.1 °F /  2.3 °C 29.27 in /  991.1 hPa WSW 12.0 mph /  19.3 km/h 18.0 mph /  29 km/h 81 % 0.00 in /  0 mm 0 W/m2
02:58 41.5 °F /  5.3 °C 36.1 °F /  2.3 °C 29.27 in /  991.1 hPa SW 13.0 mph /  20.9 km/h 20.0 mph /  32.2 km/h 81 % 0.00 in /  0 mm 0 W/m2
02:59 41.5 °F /  5.3 °C 36.1 °F /  2.3 °C 29.27 in /  991.1 hPa SW 13.0 mph /  20.9 km/h 20.0 mph /  32.2 km/h 81 % 0.00 in /  0 mm 0 W/m2
03:04 41.5 °F /  5.3 °C 36.1 °F /  2.3 °C 29.27 in /  991.1 hPa SW 13.0 mph /  20.9 km/h 19.0 mph /  30.6 km/h 81 % 0.00 in /  0 mm 0 W/m2
03:05 41.5 °F /  5.3 °C 36.1 °F /  2.3 °C 29.27 in /  991.1 hPa SW 12.0 mph /  19.3 km/h 19.0 mph /  30.6 km/h 81 % 0.00 in /  0 mm 0 W/m2
03:10 41.5 °F /  5.3 °C 35.8 °F /  2.1 °C 29.27 in /  991.1 hPa SW 14.0 mph /  22.5 km/h 24.0 mph /  38.6 km/h 80 % 0.00 in /  0 mm 0 W/m2
03:15 41.7 °F /  5.4 °C 36.0 °F /  2.2 °C 29.27 in /  991.1 hPa SW 11.0 mph /  17.7 km/h 19.0 mph /  30.6 km/h 80 % 0.00 in /  0 mm 0 W/m2
03:17 41.5 °F /  5.3 °C 35.8 °F /  2.1 °C 29.27 in /  991.1 hPa SW 10.0 mph /  16.1 km/h 14.0 mph /  22.5 km/h 80 % 0.00 in /  0 mm 0 W/m2
03:22 41.7 °F /  5.4 °C 35.7 °F /  2.1 °C 29.27 in /  991.1 hPa SSW 10.0 mph /  16.1 km/h 15.0 mph /  24.1 km/h 79 % 0.00 in /  0 mm 0 W/m2
03:25 41.5 °F /  5.3 °C 35.5 °F /  1.9 °C 29.27 in /  991.1 hPa SSW 12.0 mph /  19.3 km/h 20.0 mph /  32.2 km/h 79 % 0.00 in /  0 mm 0 W/m2
03:30 41.5 °F /  5.3 °C 35.8 °F /  2.1 °C 29.27 in /  991.1 hPa SW 12.0 mph /  19.3 km/h 22.0 mph /  35.4 km/h 80 % 0.00 in /  0 mm 0 W/m2
03:35 41.4 °F /  5.2 °C 35.7 °F /  2.1 °C 29.27 in /  991.1 hPa SW 8.0 mph /  12.9 km/h 14.0 mph /  22.5 km/h 80 % 0.00 in /  0 mm 0 W/m2
03:36 41.4 °F /  5.2 °C 35.7 °F /  2.1 °C 29.27 in /  991.1 hPa SW 9.0 mph /  14.5 km/h 16.0 mph /  25.7 km/h 80 % 0.00 in /  0 mm 0 W/m2
03:41 41.2 °F /  5.1 °C 35.5 °F /  1.9 °C 29.27 in /  991.1 hPa SW 9.0 mph /  14.5 km/h 12.0 mph /  19.3 km/h 80 % 0.00 in /  0 mm 0 W/m2
03:42 41.2 °F /  5.1 °C 35.5 °F /  1.9 °C 29.28 in /  991.4 hPa SW 10.0 mph /  16.1 km/h 16.0 mph /  25.7 km/h 80 % 0.00 in /  0 mm 0 W/m2
03:48 41.2 °F /  5.1 °C 35.5 °F /  1.9 °C 29.27 in /  991.1 hPa WSW 11.0 mph /  17.7 km/h 16.0 mph /  25.7 km/h 80 % 0.00 in /  0 mm 0 W/m2
03:53 41.2 °F /  5.1 °C 35.8 °F /  2.1 °C 29.28 in /  991.4 hPa SW 8.0 mph /  12.9 km/h 13.0 mph /  20.9 km/h 81 % 0.00 in /  0 mm 0 W/m2
03:56 41.0 °F /  5 °C 35.6 °F /  2 °C 29.27 in /  991.1 hPa WSW 10.0 mph /  16.1 km/h 15.0 mph /  24.1 km/h 81 % 0.00 in /  0 mm 0 W/m2
04:01 41.2 °F /  5.1 °C 35.8 °F /  2.1 °C 29.27 in /  991.1 hPa SW 9.0 mph /  14.5 km/h 16.0 mph /  25.7 km/h 81 % 0.00 in /  0 mm 0 W/m2
04:03 41.2 °F /  5.1 °C 35.8 °F /  2.1 °C 29.27 in /  991.1 hPa SW 8.0 mph /  12.9 km/h 12.0 mph /  19.3 km/h 81 % 0.00 in /  0 mm 0 W/m2
04:06 41.2 °F /  5.1 °C 35.8 °F /  2.1 °C 29.27 in /  991.1 hPa WSW 8.0 mph /  12.9 km/h 14.0 mph /  22.5 km/h 81 % 0.00 in /  0 mm 0 W/m2
04:08 41.2 °F /  5.1 °C 35.8 °F /  2.1 °C 29.27 in /  991.1 hPa WSW 7.0 mph /  11.3 km/h 14.0 mph /  22.5 km/h 81 % 0.00 in /  0 mm 0 W/m2
04:13 41.2 °F /  5.1 °C 35.8 °F /  2.1 °C 29.26 in /  990.7 hPa WSW 12.0 mph /  19.3 km/h 21.0 mph /  33.8 km/h 81 % 0.00 in /  0 mm 0 W/m2
04:14 41.2 °F /  5.1 °C 35.8 °F /  2.1 °C 29.26 in /  990.7 hPa WSW 12.0 mph /  19.3 km/h 21.0 mph /  33.8 km/h 81 % 0.00 in /  0 mm 0 W/m2
04:19 41.4 °F /  5.2 °C 36.0 °F /  2.2 °C 29.27 in /  991.1 hPa WSW 7.0 mph /  11.3 km/h 13.0 mph /  20.9 km/h 81 % 0.00 in /  0 mm 0 W/m2
04:21 41.4 °F /  5.2 °C 36.0 °F /  2.2 °C 29.27 in /  991.1 hPa WSW 12.0 mph /  19.3 km/h 19.0 mph /  30.6 km/h 81 % 0.00 in /  0 mm 0 W/m2
04:26 41.5 °F /  5.3 °C 36.1 °F /  2.3 °C 29.27 in /  991.1 hPa WSW 10.0 mph /  16.1 km/h 14.0 mph /  22.5 km/h 81 % 0.00 in /  0 mm 0 W/m2
04:27 41.5 °F /  5.3 °C 36.1 °F /  2.3 °C 29.27 in /  991.1 hPa WSW 10.0 mph /  16.1 km/h 18.0 mph /  29 km/h 81 % 0.00 in /  0 mm 0 W/m2
04:29 41.7 °F /  5.4 °C 36.3 °F /  2.4 °C 29.27 in /  991.1 hPa WSW 12.0 mph /  19.3 km/h 20.0 mph /  32.2 km/h 81 % 0.00 in /  0 mm 0 W/m2
04:33 42.1 °F /  5.6 °C 36.7 °F /  2.6 °C 29.27 in /  991.1 hPa WSW 12.0 mph /  19.3 km/h 21.0 mph /  33.8 km/h 81 % 0.00 in /  0 mm 0 W/m2
04:37 42.3 °F /  5.7 °C 36.5 °F /  2.5 °C 29.27 in /  991.1 hPa WSW 12.0 mph /  19.3 km/h 19.0 mph /  30.6 km/h 80 % 0.00 in /  0 mm 0 W/m2
04:38 42.3 °F /  5.7 °C 36.5 °F /  2.5 °C 29.27 in /  991.1 hPa WSW 11.0 mph /  17.7 km/h 19.0 mph /  30.6 km/h 80 % 0.00 in /  0 mm 0 W/m2
04:40 42.3 °F /  5.7 °C 36.5 °F /  2.5 °C 29.27 in /  991.1 hPa WSW 12.0 mph /  19.3 km/h 24.0 mph /  38.6 km/h 80 % 0.00 in /  0 mm 0 W/m2
04:45 42.4 °F /  5.8 °C 36.7 °F /  2.6 °C 29.27 in /  991.1 hPa WSW 13.0 mph /  20.9 km/h 20.0 mph /  32.2 km/h 80 % 0.00 in /  0 mm 0 W/m2
04:50 42.6 °F /  5.9 °C 36.9 °F /  2.7 °C 29.26 in /  990.7 hPa WSW 11.0 mph /  17.7 km/h 19.0 mph /  30.6 km/h 80 % 0.00 in /  0 mm 0 W/m2
04:55 42.8 °F /  6 °C 37.1 °F /  2.8 °C 29.26 in /  990.7 hPa WSW 13.0 mph /  20.9 km/h 22.0 mph /  35.4 km/h 80 % 0.00 in /  0 mm 0 W/m2
04:57 42.8 °F /  6 °C 37.1 °F /  2.8 °C 29.26 in /  990.7 hPa WSW 11.0 mph /  17.7 km/h 20.0 mph /  32.2 km/h 80 % 0.00 in /  0 mm 0 W/m2
04:58 42.8 °F /  6 °C 37.1 °F /  2.8 °C 29.26 in /  990.7 hPa WSW 11.0 mph /  17.7 km/h 20.0 mph /  32.2 km/h 80 % 0.00 in /  0 mm 0 W/m2
05:03 43.0 °F /  6.1 °C 37.2 °F /  2.9 °C 29.26 in /  990.7 hPa WSW 12.0 mph /  19.3 km/h 20.0 mph /  32.2 km/h 80 % 0.00 in /  0 mm 0 W/m2
05:08 43.0 °F /  6.1 °C 37.2 °F /  2.9 °C 29.26 in /  990.7 hPa WSW 10.0 mph /  16.1 km/h 15.0 mph /  24.1 km/h 80 % 0.00 in /  0 mm 0 W/m2
05:09 43.0 °F /  6.1 °C 37.2 °F /  2.9 °C 29.26 in /  990.7 hPa WSW 12.0 mph /  19.3 km/h 20.0 mph /  32.2 km/h 80 % 0.00 in /  0 mm 0 W/m2
05:10 43.0 °F /  6.1 °C 37.5 °F /  3.1 °C 29.26 in /  990.7 hPa WSW 13.0 mph /  20.9 km/h 20.0 mph /  32.2 km/h 81 % 0.00 in /  0 mm 0 W/m2
05:15 43.0 °F /  6.1 °C 37.5 °F /  3.1 °C 29.26 in /  990.7 hPa SW 11.0 mph /  17.7 km/h 16.0 mph /  25.7 km/h 81 % 0.00 in /  0 mm 0 W/m2
05:17 43.0 °F /  6.1 °C 37.5 °F /  3.1 °C 29.26 in /  990.7 hPa WSW 13.0 mph /  20.9 km/h 20.0 mph /  32.2 km/h 81 % 0.00 in /  0 mm 0 W/m2
05:21 43.0 °F /  6.1 °C 37.5 °F /  3.1 °C 29.26 in /  990.7 hPa WSW 11.0 mph /  17.7 km/h 16.0 mph /  25.7 km/h 81 % 0.00 in /  0 mm 0 W/m2
05:25 43.0 °F /  6.1 °C 37.5 °F /  3.1 °C 29.27 in /  991.1 hPa WSW 13.0 mph /  20.9 km/h 23.0 mph /  37 km/h 81 % 0.00 in /  0 mm 0 W/m2
05:30 43.0 °F /  6.1 °C 37.5 °F /  3.1 °C 29.27 in /  991.1 hPa WSW 13.0 mph /  20.9 km/h 21.0 mph /  33.8 km/h 81 % 0.00 in /  0 mm 0 W/m2
05:34 43.0 °F /  6.1 °C 37.5 °F /  3.1 °C 29.27 in /  991.1 hPa WSW 11.0 mph /  17.7 km/h 19.0 mph /  30.6 km/h 81 % 0.00 in /  0 mm 0 W/m2
05:37 43.0 °F /  6.1 °C 37.5 °F /  3.1 °C 29.27 in /  991.1 hPa WSW 11.0 mph /  17.7 km/h 18.0 mph /  29 km/h 81 % 0.00 in /  0 mm 0 W/m2
05:42 42.8 °F /  6 °C 37.4 °F /  3 °C 29.26 in /  990.7 hPa WSW 13.0 mph /  20.9 km/h 20.0 mph /  32.2 km/h 81 % 0.00 in /  0 mm 0 W/m2
05:44 42.8 °F /  6 °C 37.4 °F /  3 °C 29.27 in /  991.1 hPa WSW 14.0 mph /  22.5 km/h 22.0 mph /  35.4 km/h 81 % 0.00 in /  0 mm 0 W/m2
05:46 42.8 °F /  6 °C 37.4 °F /  3 °C 29.26 in /  990.7 hPa WSW 13.0 mph /  20.9 km/h 25.0 mph /  40.2 km/h 81 % 0.00 in /  0 mm 0 W/m2
05:51 42.8 °F /  6 °C 37.7 °F /  3.2 °C 29.27 in /  991.1 hPa WSW 15.0 mph /  24.1 km/h 22.0 mph /  35.4 km/h 82 % 0.00 in /  0 mm 0 W/m2
05:56 42.8 °F /  6 °C 37.7 °F /  3.2 °C 29.26 in /  990.7 hPa WSW 13.0 mph /  20.9 km/h 22.0 mph /  35.4 km/h 82 % 0.00 in /  0 mm 0 W/m2
05:57 42.8 °F /  6 °C 37.7 °F /  3.2 °C 29.26 in /  990.7 hPa WSW 13.0 mph /  20.9 km/h 22.0 mph /  35.4 km/h 82 % 0.00 in /  0 mm 0 W/m2
06:03 42.8 °F /  6 °C 37.7 °F /  3.2 °C 29.27 in /  991.1 hPa WSW 15.0 mph /  24.1 km/h 24.0 mph /  38.6 km/h 82 % 0.00 in /  0 mm 0 W/m2
06:05 42.8 °F /  6 °C 37.7 °F /  3.2 °C 29.27 in /  991.1 hPa WSW 12.0 mph /  19.3 km/h 22.0 mph /  35.4 km/h 82 % 0.00 in /  0 mm 0 W/m2
06:10 43.0 °F /  6.1 °C 37.5 °F /  3.1 °C 29.27 in /  991.1 hPa WSW 14.0 mph /  22.5 km/h 22.0 mph /  35.4 km/h 81 % 0.00 in /  0 mm 0 W/m2
06:11 43.0 °F /  6.1 °C 37.5 °F /  3.1 °C 29.27 in /  991.1 hPa WSW 16.0 mph /  25.7 km/h 25.0 mph /  40.2 km/h 81 % 0.00 in /  0 mm 0 W/m2
06:16 43.2 °F /  6.2 °C 37.7 °F /  3.2 °C 29.27 in /  991.1 hPa WSW 13.0 mph /  20.9 km/h 20.0 mph /  32.2 km/h 81 % 0.00 in /  0 mm 0 W/m2
06:17 43.2 °F /  6.2 °C 37.7 °F /  3.2 °C 29.27 in /  991.1 hPa WSW 12.0 mph /  19.3 km/h 19.0 mph /  30.6 km/h 81 % 0.00 in /  0 mm 0 W/m2
06:22 43.2 °F /  6.2 °C 37.7 °F /  3.2 °C 29.27 in /  991.1 hPa WSW 13.0 mph /  20.9 km/h 20.0 mph /  32.2 km/h 81 % 0.00 in /  0 mm 0 W/m2
06:24 43.2 °F /  6.2 °C 37.7 °F /  3.2 °C 29.27 in /  991.1 hPa WSW 9.0 mph /  14.5 km/h 15.0 mph /  24.1 km/h 81 % 0.00 in /  0 mm 0 W/m2
06:25 43.2 °F /  6.2 °C 37.7 °F /  3.2 °C 29.27 in /  991.1 hPa WSW 9.0 mph /  14.5 km/h 15.0 mph /  24.1 km/h 81 % 0.00 in /  0 mm 0 W/m2
06:30 43.2 °F /  6.2 °C 37.7 °F /  3.2 °C 29.27 in /  991.1 hPa WSW 12.0 mph /  19.3 km/h 20.0 mph /  32.2 km/h 81 % 0.00 in /  0 mm 0 W/m2
06:31 43.2 °F /  6.2 °C 37.7 °F /  3.2 °C 29.27 in /  991.1 hPa WSW 14.0 mph /  22.5 km/h 20.0 mph /  32.2 km/h 81 % 0.00 in /  0 mm 0 W/m2
06:32 43.2 °F /  6.2 °C 37.7 °F /  3.2 °C 29.27 in /  991.1 hPa WSW 14.0 mph /  22.5 km/h 20.0 mph /  32.2 km/h 81 % 0.00 in /  0 mm 0 W/m2
06:37 43.2 °F /  6.2 °C 37.7 °F /  3.2 °C 29.26 in /  990.7 hPa WSW 12.0 mph /  19.3 km/h 18.0 mph /  29 km/h 81 % 0.00 in /  0 mm 0 W/m2
06:40 43.2 °F /  6.2 °C 37.7 °F /  3.2 °C 29.27 in /  991.1 hPa WSW 12.0 mph /  19.3 km/h 21.0 mph /  33.8 km/h 81 % 0.00 in /  0 mm 0 W/m2
06:43 43.2 °F /  6.2 °C 37.7 °F /  3.2 °C 29.27 in /  991.1 hPa WSW 12.0 mph /  19.3 km/h 22.0 mph /  35.4 km/h 81 % 0.00 in /  0 mm 0 W/m2
06:46 43.2 °F /  6.2 °C 37.7 °F /  3.2 °C 29.27 in /  991.1 hPa WSW 11.0 mph /  17.7 km/h 16.0 mph /  25.7 km/h 81 % 0.00 in /  0 mm 0 W/m2
06:51 43.2 °F /  6.2 °C 37.7 °F /  3.2 °C 29.27 in /  991.1 hPa WSW 10.0 mph /  16.1 km/h 20.0 mph /  32.2 km/h 81 % 0.00 in /  0 mm 0 W/m2
06:52 43.2 °F /  6.2 °C 37.4 °F /  3 °C 29.27 in /  991.1 hPa WSW 6.0 mph /  9.7 km/h 10.0 mph /  16.1 km/h 80 % 0.00 in /  0 mm 0 W/m2
06:56 43.2 °F /  6.2 °C 37.7 °F /  3.2 °C 29.27 in /  991.1 hPa WSW 9.0 mph /  14.5 km/h 16.0 mph /  25.7 km/h 81 % 0.00 in /  0 mm 0 W/m2
06:59 43.2 °F /  6.2 °C 37.7 °F /  3.2 °C 29.27 in /  991.1 hPa SSW 5.0 mph /  8 km/h 8.0 mph /  12.9 km/h 81 % 0.00 in /  0 mm 0 W/m2
07:03 43.2 °F /  6.2 °C 37.7 °F /  3.2 °C 29.27 in /  991.1 hPa SW 5.0 mph /  8 km/h 10.0 mph /  16.1 km/h 81 % 0.00 in /  0 mm 0 W/m2
07:06 43.0 °F /  6.1 °C 37.5 °F /  3.1 °C 29.28 in /  991.4 hPa SSE 2.0 mph /  3.2 km/h 6.0 mph /  9.7 km/h 81 % 0.00 in /  0 mm 0 W/m2
07:11 43.0 °F /  6.1 °C 37.5 °F /  3.1 °C 29.28 in /  991.4 hPa SSW 3.0 mph /  4.8 km/h 8.0 mph /  12.9 km/h 81 % 0.00 in /  0 mm 0 W/m2
07:12 43.0 °F /  6.1 °C 37.5 °F /  3.1 °C 29.28 in /  991.4 hPa SSW 2.0 mph /  3.2 km/h 6.0 mph /  9.7 km/h 81 % 0.00 in /  0 mm 0 W/m2
07:16 43.0 °F /  6.1 °C 37.5 °F /  3.1 °C 29.28 in /  991.4 hPa ESE 1.0 mph /  1.6 km/h 5.0 mph /  8 km/h 81 % 0.00 in /  0 mm 0 W/m2
07:18 43.0 °F /  6.1 °C 37.2 °F /  2.9 °C 29.27 in /  991.1 hPa WNW 3.0 mph /  4.8 km/h 8.0 mph /  12.9 km/h 80 % 0.00 in /  0 mm 0 W/m2
07:22 42.8 °F /  6 °C 37.4 °F /  3 °C 29.28 in /  991.4 hPa SSW 5.0 mph /  8 km/h 15.0 mph /  24.1 km/h 81 % 0.00 in /  0 mm 0 W/m2
07:23 43.0 °F /  6.1 °C 37.5 °F /  3.1 °C 29.28 in /  991.4 hPa SSW 6.0 mph /  9.7 km/h 15.0 mph /  24.1 km/h 81 % 0.00 in /  0 mm 0 W/m2
07:28 43.0 °F /  6.1 °C 37.2 °F /  2.9 °C 29.28 in /  991.4 hPa SSE 1.0 mph /  1.6 km/h 4.0 mph /  6.4 km/h 80 % 0.00 in /  0 mm 0 W/m2
07:29 43.0 °F /  6.1 °C 37.2 °F /  2.9 °C 29.28 in /  991.4 hPa SSE 2.0 mph /  3.2 km/h 4.0 mph /  6.4 km/h 80 % 0.00 in /  0 mm 0 W/m2
07:34 42.8 °F /  6 °C 37.1 °F /  2.8 °C 29.28 in /  991.4 hPa SSE 1.0 mph /  1.6 km/h 4.0 mph /  6.4 km/h 80 % 0.00 in /  0 mm 0 W/m2
07:37 42.8 °F /  6 °C 37.4 °F /  3 °C 29.28 in /  991.4 hPa SSE 3.0 mph /  4.8 km/h 6.0 mph /  9.7 km/h 81 % 0.00 in /  0 mm 0 W/m2
07:40 42.6 °F /  5.9 °C 37.2 °F /  2.9 °C 29.27 in /  991.1 hPa SSE 3.0 mph /  4.8 km/h 6.0 mph /  9.7 km/h 81 % 0.00 in /  0 mm 0 W/m2
07:43 42.6 °F /  5.9 °C 37.5 °F /  3.1 °C 29.28 in /  991.4 hPa SE 3.0 mph /  4.8 km/h 6.0 mph /  9.7 km/h 82 % 0.00 in /  0 mm 0 W/m2
07:46 42.4 °F /  5.8 °C 37.3 °F /  2.9 °C 29.28 in /  991.4 hPa SE 4.0 mph /  6.4 km/h 7.0 mph /  11.3 km/h 82 % 0.00 in /  0 mm 0 W/m2
07:51 42.3 °F /  5.7 °C 37.5 °F /  3.1 °C 29.28 in /  991.4 hPa SSW 1.0 mph /  1.6 km/h 6.0 mph /  9.7 km/h 83 % 0.00 in /  0 mm 0 W/m2
07:52 42.3 °F /  5.7 °C 37.5 °F /  3.1 °C 29.28 in /  991.4 hPa SSW 2.0 mph /  3.2 km/h 6.0 mph /  9.7 km/h 83 % 0.00 in /  0 mm 0 W/m2
07:55 42.3 °F /  5.7 °C 37.5 °F /  3.1 °C 29.28 in /  991.4 hPa South 3.0 mph /  4.8 km/h 5.0 mph /  8 km/h 83 % 0.00 in /  0 mm 0 W/m2
07:58 42.3 °F /  5.7 °C 37.5 °F /  3.1 °C 29.28 in /  991.4 hPa SE 6.0 mph /  9.7 km/h 9.0 mph /  14.5 km/h 83 % 0.00 in /  0 mm 0 W/m2
08:01 42.3 °F /  5.7 °C 37.5 °F /  3.1 °C 29.28 in /  991.4 hPa South 3.0 mph /  4.8 km/h 10.0 mph /  16.1 km/h 83 % 0.00 in /  0 mm 0 W/m2
08:06 42.3 °F /  5.7 °C 37.5 °F /  3.1 °C 29.28 in /  991.4 hPa SSW 1.0 mph /  1.6 km/h 5.0 mph /  8 km/h 83 % 0.00 in /  0 mm 0 W/m2
08:07 42.3 °F /  5.7 °C 37.5 °F /  3.1 °C 29.28 in /  991.4 hPa Calm   1.0 mph /  1.6 km/h 83 % 0.00 in /  0 mm 0 W/m2
08:09 42.3 °F /  5.7 °C 37.5 °F /  3.1 °C 29.28 in /  991.4 hPa ESE 1.0 mph /  1.6 km/h 5.0 mph /  8 km/h 83 % 0.00 in /  0 mm 0 W/m2
08:13 42.3 °F /  5.7 °C 37.5 °F /  3.1 °C 29.28 in /  991.4 hPa East 2.0 mph /  3.2 km/h 6.0 mph /  9.7 km/h 83 % 0.00 in /  0 mm 0 W/m2
08:18 42.3 °F /  5.7 °C 37.5 °F /  3.1 °C 29.28 in /  991.4 hPa SSE 3.0 mph /  4.8 km/h 7.0 mph /  11.3 km/h 83 % 0.00 in /  0 mm 0 W/m2
08:20 42.3 °F /  5.7 °C 37.5 °F /  3.1 °C 29.28 in /  991.4 hPa SSE 3.0 mph /  4.8 km/h 6.0 mph /  9.7 km/h 83 % 0.00 in /  0 mm 0 W/m2
08:25 42.4 °F /  5.8 °C 37.6 °F /  3.1 °C 29.28 in /  991.4 hPa ESE 2.0 mph /  3.2 km/h 5.0 mph /  8 km/h 83 % 0.00 in /  0 mm 5 W/m2
08:30 42.6 °F /  5.9 °C 37.5 °F /  3.1 °C 29.28 in /  991.4 hPa SE 1.0 mph /  1.6 km/h 5.0 mph /  8 km/h 82 % 0.00 in /  0 mm 7 W/m2
08:36 42.6 °F /  5.9 °C 37.5 °F /  3.1 °C 29.28 in /  991.4 hPa SE 2.0 mph /  3.2 km/h 5.0 mph /  8 km/h 82 % 0.00 in /  0 mm 9 W/m2
08:41 42.6 °F /  5.9 °C 37.2 °F /  2.9 °C 29.28 in /  991.4 hPa South 1.0 mph /  1.6 km/h 6.0 mph /  9.7 km/h 81 % 0.00 in /  0 mm 11 W/m2
08:46 42.6 °F /  5.9 °C 37.2 °F /  2.9 °C 29.28 in /  991.4 hPa South 2.0 mph /  3.2 km/h 5.0 mph /  8 km/h 81 % 0.00 in /  0 mm 14 W/m2
08:47 42.4 °F /  5.8 °C 37.0 °F /  2.8 °C 29.28 in /  991.4 hPa South 2.0 mph /  3.2 km/h 5.0 mph /  8 km/h 81 % 0.00 in /  0 mm 14 W/m2
08:52 42.4 °F /  5.8 °C 37.0 °F /  2.8 °C 29.28 in /  991.4 hPa SW 2.0 mph /  3.2 km/h 5.0 mph /  8 km/h 81 % 0.00 in /  0 mm 19 W/m2
08:57 42.3 °F /  5.7 °C 36.8 °F /  2.7 °C 29.28 in /  991.4 hPa SW 1.0 mph /  1.6 km/h 2.0 mph /  3.2 km/h 81 % 0.00 in /  0 mm 25 W/m2
09:01 42.1 °F /  5.6 °C 36.7 °F /  2.6 °C 29.28 in /  991.4 hPa SW 1.0 mph /  1.6 km/h 3.0 mph /  4.8 km/h 81 % 0.00 in /  0 mm 26 W/m2
09:03 42.1 °F /  5.6 °C 37.0 °F /  2.8 °C 29.28 in /  991.4 hPa SW 1.0 mph /  1.6 km/h 3.0 mph /  4.8 km/h 82 % 0.00 in /  0 mm 28 W/m2
09:07 41.9 °F /  5.5 °C 36.8 °F /  2.7 °C 29.28 in /  991.4 hPa SW 5.0 mph /  8 km/h 8.0 mph /  12.9 km/h 82 % 0.00 in /  0 mm 33 W/m2
09:09 41.9 °F /  5.5 °C 36.8 °F /  2.7 °C 29.28 in /  991.4 hPa SW 4.0 mph /  6.4 km/h 6.0 mph /  9.7 km/h 82 % 0.00 in /  0 mm 37 W/m2
09:14 41.9 °F /  5.5 °C 37.1 °F /  2.8 °C 29.28 in /  991.4 hPa SW 6.0 mph /  9.7 km/h 8.0 mph /  12.9 km/h 83 % 0.00 in /  0 mm 53 W/m2
09:16 41.9 °F /  5.5 °C 37.1 °F /  2.8 °C 29.28 in /  991.4 hPa WSW 7.0 mph /  11.3 km/h 9.0 mph /  14.5 km/h 83 % 0.00 in /  0 mm 58 W/m2
09:21 41.9 °F /  5.5 °C 37.1 °F /  2.8 °C 29.29 in /  991.8 hPa WSW 5.0 mph /  8 km/h 9.0 mph /  14.5 km/h 83 % 0.00 in /  0 mm 58 W/m2
09:24 41.9 °F /  5.5 °C 37.1 °F /  2.8 °C 29.29 in /  991.8 hPa WSW 6.0 mph /  9.7 km/h 10.0 mph /  16.1 km/h 83 % 0.00 in /  0 mm 56 W/m2
09:26 41.9 °F /  5.5 °C 37.1 °F /  2.8 °C 29.29 in /  991.8 hPa WSW 7.0 mph /  11.3 km/h 11.0 mph /  17.7 km/h 83 % 0.00 in /  0 mm 56 W/m2
09:31 42.1 °F /  5.6 °C 37.3 °F /  2.9 °C 29.29 in /  991.8 hPa WSW 8.0 mph /  12.9 km/h 12.0 mph /  19.3 km/h 83 % 0.00 in /  0 mm 56 W/m2
09:35 42.4 °F /  5.8 °C 37.6 °F /  3.1 °C 29.29 in /  991.8 hPa WSW 7.0 mph /  11.3 km/h 11.0 mph /  17.7 km/h 83 % 0.00 in /  0 mm 46 W/m2
09:40 42.6 °F /  5.9 °C 37.5 °F /  3.1 °C 29.29 in /  991.8 hPa WSW 7.0 mph /  11.3 km/h 11.0 mph /  17.7 km/h 82 % 0.00 in /  0 mm 35 W/m2
09:43 42.6 °F /  5.9 °C 37.5 °F /  3.1 °C 29.29 in /  991.8 hPa WSW 7.0 mph /  11.3 km/h 12.0 mph /  19.3 km/h 82 % 0.00 in /  0 mm 30 W/m2
09:48 43.0 °F /  6.1 °C 37.9 °F /  3.3 °C 29.30 in /  992.1 hPa West 7.0 mph /  11.3 km/h 9.0 mph /  14.5 km/h 82 % 0.00 in /  0 mm 28 W/m2
09:52 43.0 °F /  6.1 °C 37.5 °F /  3.1 °C 29.30 in /  992.1 hPa West 7.0 mph /  11.3 km/h 11.0 mph /  17.7 km/h 81 % 0.00 in /  0 mm 35 W/m2
09:57 43.2 °F /  6.2 °C 37.7 °F /  3.2 °C 29.29 in /  991.8 hPa WSW 7.0 mph /  11.3 km/h 10.0 mph /  16.1 km/h 81 % 0.00 in /  0 mm 49 W/m2
09:58 43.2 °F /  6.2 °C 37.7 °F /  3.2 °C 29.30 in /  992.1 hPa WSW 7.0 mph /  11.3 km/h 9.0 mph /  14.5 km/h 81 % 0.00 in /  0 mm 53 W/m2
09:59 43.2 °F /  6.2 °C 37.7 °F /  3.2 °C 29.30 in /  992.1 hPa WSW 7.0 mph /  11.3 km/h 9.0 mph /  14.5 km/h 81 % 0.00 in /  0 mm 53 W/m2
10:04 43.0 °F /  6.1 °C 37.5 °F /  3.1 °C 29.30 in /  992.1 hPa WSW 8.0 mph /  12.9 km/h 12.0 mph /  19.3 km/h 81 % 0.00 in /  0 mm 44 W/m2
10:09 43.0 °F /  6.1 °C 37.9 °F /  3.3 °C 29.30 in /  992.1 hPa SW 9.0 mph /  14.5 km/h 12.0 mph /  19.3 km/h 82 % 0.00 in /  0 mm 39 W/m2
10:13 43.0 °F /  6.1 °C 37.9 °F /  3.3 °C 29.30 in /  992.1 hPa WSW 9.0 mph /  14.5 km/h 12.0 mph /  19.3 km/h 82 % 0.00 in /  0 mm 39 W/m2
10:18 43.0 °F /  6.1 °C 37.9 °F /  3.3 °C 29.30 in /  992.1 hPa SW 10.0 mph /  16.1 km/h 15.0 mph /  24.1 km/h 82 % 0.00 in /  0 mm 54 W/m2
10:20 43.0 °F /  6.1 °C 37.9 °F /  3.3 °C 29.30 in /  992.1 hPa WSW 9.0 mph /  14.5 km/h 13.0 mph /  20.9 km/h 82 % 0.00 in /  0 mm 54 W/m2
10:21 43.0 °F /  6.1 °C 37.9 °F /  3.3 °C 29.30 in /  992.1 hPa WSW 9.0 mph /  14.5 km/h 13.0 mph /  20.9 km/h 82 % 0.00 in /  0 mm 51 W/m2
10:26 43.2 °F /  6.2 °C 38.0 °F /  3.3 °C 29.30 in /  992.1 hPa SW 8.0 mph /  12.9 km/h 11.0 mph /  17.7 km/h 82 % 0.00 in /  0 mm 47 W/m2
10:31 43.2 °F /  6.2 °C 38.0 °F /  3.3 °C 29.30 in /  992.1 hPa SW 8.0 mph /  12.9 km/h 12.0 mph /  19.3 km/h 82 % 0.00 in /  0 mm 54 W/m2
10:35 43.0 °F /  6.1 °C 38.2 °F /  3.4 °C 29.30 in /  992.1 hPa SW 8.0 mph /  12.9 km/h 12.0 mph /  19.3 km/h 83 % 0.00 in /  0 mm 53 W/m2
10:38 43.0 °F /  6.1 °C 38.2 °F /  3.4 °C 29.30 in /  992.1 hPa SW 8.0 mph /  12.9 km/h 11.0 mph /  17.7 km/h 83 % 0.00 in /  0 mm 53 W/m2
10:41 43.0 °F /  6.1 °C 38.2 °F /  3.4 °C 29.30 in /  992.1 hPa SW 6.0 mph /  9.7 km/h 9.0 mph /  14.5 km/h 83 % 0.00 in /  0 mm 51 W/m2
10:45 43.0 °F /  6.1 °C 38.2 °F /  3.4 °C 29.30 in /  992.1 hPa SW 6.0 mph /  9.7 km/h 9.0 mph /  14.5 km/h 83 % 0.00 in /  0 mm 49 W/m2
10:46 43.0 °F /  6.1 °C 38.2 °F /  3.4 °C 29.30 in /  992.1 hPa SW 6.0 mph /  9.7 km/h 10.0 mph /  16.1 km/h 83 % 0.00 in /  0 mm 51 W/m2
10:50 43.0 °F /  6.1 °C 38.2 °F /  3.4 °C 29.30 in /  992.1 hPa WSW 5.0 mph /  8 km/h 8.0 mph /  12.9 km/h 83 % 0.00 in /  0 mm 53 W/m2
10:51 43.0 °F /  6.1 °C 38.2 °F /  3.4 °C 29.30 in /  992.1 hPa WSW 5.0 mph /  8 km/h 7.0 mph /  11.3 km/h 83 % 0.00 in /  0 mm 54 W/m2
10:55 43.0 °F /  6.1 °C 38.2 °F /  3.4 °C 29.30 in /  992.1 hPa SW 3.0 mph /  4.8 km/h 9.0 mph /  14.5 km/h 83 % 0.00 in /  0 mm 58 W/m2
10:59 43.0 °F /  6.1 °C 38.2 °F /  3.4 °C 29.30 in /  992.1 hPa SW 1.0 mph /  1.6 km/h 6.0 mph /  9.7 km/h 83 % 0.00 in /  0 mm 58 W/m2
11:03 43.0 °F /  6.1 °C 38.2 °F /  3.4 °C 29.30 in /  992.1 hPa WSW 2.0 mph /  3.2 km/h 5.0 mph /  8 km/h 83 % 0.00 in /  0 mm 54 W/m2
11:08 43.0 °F /  6.1 °C 38.5 °F /  3.6 °C 29.30 in /  992.1 hPa West 1.0 mph /  1.6 km/h 4.0 mph /  6.4 km/h 84 % 0.00 in /  0 mm 62 W/m2
11:10 43.0 °F /  6.1 °C 38.5 °F /  3.6 °C 29.30 in /  992.1 hPa West 1.0 mph /  1.6 km/h 4.0 mph /  6.4 km/h 84 % 0.00 in /  0 mm 63 W/m2
11:13 43.0 °F /  6.1 °C 38.5 °F /  3.6 °C 29.30 in /  992.1 hPa Calm   2.0 mph /  3.2 km/h 84 % 0.00 in /  0 mm 65 W/m2
11:16 43.0 °F /  6.1 °C 38.5 °F /  3.6 °C 29.30 in /  992.1 hPa ENE 2.0 mph /  3.2 km/h 5.0 mph /  8 km/h 84 % 0.00 in /  0 mm 65 W/m2
11:22 42.8 °F /  6 °C 38.3 °F /  3.5 °C 29.30 in /  992.1 hPa East 1.0 mph /  1.6 km/h 4.0 mph /  6.4 km/h 84 % 0.00 in /  0 mm 65 W/m2
11:26 42.6 °F /  5.9 °C 38.1 °F /  3.4 °C 29.30 in /  992.1 hPa ENE 1.0 mph /  1.6 km/h 4.0 mph /  6.4 km/h 84 % 0.00 in /  0 mm 65 W/m2
11:27 42.6 °F /  5.9 °C 38.1 °F /  3.4 °C 29.30 in /  992.1 hPa ENE 2.0 mph /  3.2 km/h 4.0 mph /  6.4 km/h 84 % 0.00 in /  0 mm 65 W/m2
11:32 42.4 °F /  5.8 °C 38.2 °F /  3.4 °C 29.30 in /  992.1 hPa ESE 3.0 mph /  4.8 km/h 7.0 mph /  11.3 km/h 85 % 0.00 in /  0 mm 65 W/m2
11:33 42.4 °F /  5.8 °C 38.2 °F /  3.4 °C 29.30 in /  992.1 hPa ESE 3.0 mph /  4.8 km/h 7.0 mph /  11.3 km/h 85 % 0.00 in /  0 mm 65 W/m2
11:37 42.4 °F /  5.8 °C 38.2 °F /  3.4 °C 29.30 in /  992.1 hPa SSE 7.0 mph /  11.3 km/h 10.0 mph /  16.1 km/h 85 % 0.00 in /  0 mm 63 W/m2
11:42 42.4 °F /  5.8 °C 38.2 °F /  3.4 °C 29.30 in /  992.1 hPa South 3.0 mph /  4.8 km/h 8.0 mph /  12.9 km/h 85 % 0.00 in /  0 mm 58 W/m2
11:47 42.4 °F /  5.8 °C 38.5 °F /  3.6 °C 29.30 in /  992.1 hPa SSW 2.0 mph /  3.2 km/h 6.0 mph /  9.7 km/h 86 % 0.00 in /  0 mm 56 W/m2
11:48 42.4 °F /  5.8 °C 38.2 °F /  3.4 °C 29.30 in /  992.1 hPa South 1.0 mph /  1.6 km/h 5.0 mph /  8 km/h 85 % 0.00 in /  0 mm 56 W/m2
11:53 42.4 °F /  5.8 °C 38.5 °F /  3.6 °C 29.30 in /  992.1 hPa SSW 5.0 mph /  8 km/h 10.0 mph /  16.1 km/h 86 % 0.00 in /  0 mm 63 W/m2
11:58 42.4 °F /  5.8 °C 38.5 °F /  3.6 °C 29.30 in /  992.1 hPa SW 5.0 mph /  8 km/h 7.0 mph /  11.3 km/h 86 % 0.00 in /  0 mm 70 W/m2
12:03 42.6 °F /  5.9 °C 38.7 °F /  3.7 °C 29.30 in /  992.1 hPa SSW 5.0 mph /  8 km/h 10.0 mph /  16.1 km/h 86 % 0.00 in /  0 mm 81 W/m2
12:05 42.6 °F /  5.9 °C 38.4 °F /  3.6 °C 29.30 in /  992.1 hPa SSW 5.0 mph /  8 km/h 10.0 mph /  16.1 km/h 85 % 0.00 in /  0 mm 83 W/m2
12:10 42.8 °F /  6 °C 38.6 °F /  3.7 °C 29.31 in /  992.4 hPa SW 3.0 mph /  4.8 km/h 8.0 mph /  12.9 km/h 85 % 0.00 in /  0 mm 88 W/m2
12:15 42.8 °F /  6 °C 38.6 °F /  3.7 °C 29.30 in /  992.1 hPa SSW 4.0 mph /  6.4 km/h 10.0 mph /  16.1 km/h 85 % 0.00 in /  0 mm 86 W/m2
12:20 43.2 °F /  6.2 °C 39.0 °F /  3.9 °C 29.30 in /  992.1 hPa WSW 6.0 mph /  9.7 km/h 9.0 mph /  14.5 km/h 85 % 0.00 in /  0 mm 86 W/m2
12:21 43.2 °F /  6.2 °C 39.0 °F /  3.9 °C 29.30 in /  992.1 hPa WSW 4.0 mph /  6.4 km/h 8.0 mph /  12.9 km/h 85 % 0.00 in /  0 mm 84 W/m2
12:24 43.2 °F /  6.2 °C 39.0 °F /  3.9 °C 29.31 in /  992.4 hPa SW 4.0 mph /  6.4 km/h 6.0 mph /  9.7 km/h 85 % 0.00 in /  0 mm 83 W/m2
12:26 43.3 °F /  6.3 °C 39.1 °F /  3.9 °C 29.31 in /  992.4 hPa WSW 3.0 mph /  4.8 km/h 10.0 mph /  16.1 km/h 85 % 0.00 in /  0 mm 83 W/m2
12:30 43.5 °F /  6.4 °C 39.0 °F /  3.9 °C 29.31 in /  992.4 hPa WSW 6.0 mph /  9.7 km/h 10.0 mph /  16.1 km/h 84 % 0.00 in /  0 mm 84 W/m2
12:35 43.7 °F /  6.5 °C 39.2 °F /  4 °C 29.31 in /  992.4 hPa WSW 3.0 mph /  4.8 km/h 6.0 mph /  9.7 km/h 84 % 0.00 in /  0 mm 91 W/m2
12:37 43.7 °F /  6.5 °C 39.2 °F /  4 °C 29.31 in /  992.4 hPa WSW 4.0 mph /  6.4 km/h 9.0 mph /  14.5 km/h 84 % 0.00 in /  0 mm 91 W/m2
12:38 43.9 °F /  6.6 °C 39.1 °F /  3.9 °C 29.31 in /  992.4 hPa WSW 6.0 mph /  9.7 km/h 9.0 mph /  14.5 km/h 83 % 0.00 in /  0 mm 91 W/m2
12:42 43.9 °F /  6.6 °C 39.1 °F /  3.9 °C 29.31 in /  992.4 hPa WSW 7.0 mph /  11.3 km/h 12.0 mph /  19.3 km/h 83 % 0.00 in /  0 mm 102 W/m2
12:44 44.1 °F /  6.7 °C 38.9 °F /  3.8 °C 29.31 in /  992.4 hPa WSW 9.0 mph /  14.5 km/h 14.0 mph /  22.5 km/h 82 % 0.00 in /  0 mm 109 W/m2
12:47 44.1 °F /  6.7 °C 38.9 °F /  3.8 °C 29.31 in /  992.4 hPa WSW 7.0 mph /  11.3 km/h 16.0 mph /  25.7 km/h 82 % 0.00 in /  0 mm 111 W/m2
12:52 44.2 °F /  6.8 °C 39.1 °F /  3.9 °C 29.31 in /  992.4 hPa WSW 7.0 mph /  11.3 km/h 10.0 mph /  16.1 km/h 82 % 0.00 in /  0 mm 104 W/m2
12:55 44.2 °F /  6.8 °C 39.1 °F /  3.9 °C 29.31 in /  992.4 hPa WSW 9.0 mph /  14.5 km/h 15.0 mph /  24.1 km/h 82 % 0.00 in /  0 mm 105 W/m2
13:00 44.2 °F /  6.8 °C 39.1 °F /  3.9 °C 29.31 in /  992.4 hPa WSW 8.0 mph /  12.9 km/h 11.0 mph /  17.7 km/h 82 % 0.00 in /  0 mm 165 W/m2
13:05 44.4 °F /  6.9 °C 39.3 °F /  4.1 °C 29.31 in /  992.4 hPa SW 8.0 mph /  12.9 km/h 13.0 mph /  20.9 km/h 82 % 0.00 in /  0 mm 285 W/m2
13:06 44.6 °F /  7 °C 39.4 °F /  4.1 °C 29.31 in /  992.4 hPa WSW 7.0 mph /  11.3 km/h 11.0 mph /  17.7 km/h 82 % 0.00 in /  0 mm 281 W/m2
13:08 44.8 °F /  7.1 °C 39.6 °F /  4.2 °C 29.31 in /  992.4 hPa SW 5.0 mph /  8 km/h 9.0 mph /  14.5 km/h 82 % 0.00 in /  0 mm 287 W/m2
13:13 45.1 °F /  7.3 °C 39.7 °F /  4.3 °C 29.31 in /  992.4 hPa WSW 8.0 mph /  12.9 km/h 11.0 mph /  17.7 km/h 81 % 0.00 in /  0 mm 162 W/m2
13:15 45.1 °F /  7.3 °C 39.7 °F /  4.3 °C 29.30 in /  992.1 hPa WSW 8.0 mph /  12.9 km/h 12.0 mph /  19.3 km/h 81 % 0.00 in /  0 mm 239 W/m2
13:21 45.3 °F /  7.4 °C 39.5 °F /  4.2 °C 29.30 in /  992.1 hPa West 9.0 mph /  14.5 km/h 14.0 mph /  22.5 km/h 80 % 0.00 in /  0 mm 69 W/m2
13:23 45.3 °F /  7.4 °C 39.5 °F /  4.2 °C 29.31 in /  992.4 hPa WSW 7.0 mph /  11.3 km/h 12.0 mph /  19.3 km/h 80 % 0.00 in /  0 mm 100 W/m2
13:28 45.1 °F /  7.3 °C 39.0 °F /  3.9 °C 29.30 in /  992.1 hPa WSW 12.0 mph /  19.3 km/h 18.0 mph /  29 km/h 79 % 0.00 in /  0 mm 49 W/m2
13:30 45.0 °F /  7.2 °C 39.2 °F /  4 °C 29.30 in /  992.1 hPa WSW 11.0 mph /  17.7 km/h 18.0 mph /  29 km/h 80 % 0.00 in /  0 mm 49 W/m2
13:35 44.8 °F /  7.1 °C 39.0 °F /  3.9 °C 29.31 in /  992.4 hPa WSW 10.0 mph /  16.1 km/h 16.0 mph /  25.7 km/h 80 % 0.00 in /  0 mm 53 W/m2
13:38 44.6 °F /  7 °C 39.1 °F /  3.9 °C 29.31 in /  992.4 hPa WSW 9.0 mph /  14.5 km/h 14.0 mph /  22.5 km/h 81 % 0.00 in /  0 mm 51 W/m2
13:43 44.4 °F /  6.9 °C 39.0 °F /  3.9 °C 29.31 in /  992.4 hPa WSW 9.0 mph /  14.5 km/h 14.0 mph /  22.5 km/h 81 % 0.00 in /  0 mm 63 W/m2
13:44 44.4 °F /  6.9 °C 39.0 °F /  3.9 °C 29.31 in /  992.4 hPa WSW 8.0 mph /  12.9 km/h 12.0 mph /  19.3 km/h 81 % 0.00 in /  0 mm 63 W/m2
13:49 44.4 °F /  6.9 °C 39.0 °F /  3.9 °C 29.31 in /  992.4 hPa West 7.0 mph /  11.3 km/h 13.0 mph /  20.9 km/h 81 % 0.00 in /  0 mm 77 W/m2
13:54 44.8 °F /  7.1 °C 39.6 °F /  4.2 °C 29.31 in /  992.4 hPa WSW 9.0 mph /  14.5 km/h 16.0 mph /  25.7 km/h 82 % 0.00 in /  0 mm 179 W/m2
13:55 45.0 °F /  7.2 °C 39.5 °F /  4.2 °C 29.31 in /  992.4 hPa WSW 10.0 mph /  16.1 km/h 16.0 mph /  25.7 km/h 81 % 0.00 in /  0 mm 167 W/m2
14:00 45.1 °F /  7.3 °C 39.3 °F /  4.1 °C 29.31 in /  992.4 hPa West 10.0 mph /  16.1 km/h 14.0 mph /  22.5 km/h 80 % 0.00 in /  0 mm 127 W/m2
14:05 45.5 °F /  7.5 °C 39.7 °F /  4.3 °C 29.31 in /  992.4 hPa WSW 4.0 mph /  6.4 km/h 7.0 mph /  11.3 km/h 80 % 0.00 in /  0 mm 160 W/m2
14:10 45.9 °F /  7.7 °C 39.7 °F /  4.3 °C 29.31 in /  992.4 hPa WSW 4.0 mph /  6.4 km/h 7.0 mph /  11.3 km/h 79 % 0.00 in /  0 mm 149 W/m2
14:11 45.9 °F /  7.7 °C 39.7 °F /  4.3 °C 29.31 in /  992.4 hPa WSW 4.0 mph /  6.4 km/h 7.0 mph /  11.3 km/h 79 % 0.00 in /  0 mm 149 W/m2
14:16 46.0 °F /  7.8 °C 39.6 °F /  4.2 °C 29.31 in /  992.4 hPa WSW 6.0 mph /  9.7 km/h 9.0 mph /  14.5 km/h 78 % 0.00 in /  0 mm 162 W/m2
14:19 46.0 °F /  7.8 °C 39.6 °F /  4.2 °C 29.31 in /  992.4 hPa WSW 6.0 mph /  9.7 km/h 13.0 mph /  20.9 km/h 78 % 0.00 in /  0 mm 155 W/m2
14:21 46.0 °F /  7.8 °C 39.2 °F /  4 °C 29.31 in /  992.4 hPa WSW 9.0 mph /  14.5 km/h 15.0 mph /  24.1 km/h 77 % 0.00 in /  0 mm 160 W/m2
14:24 46.0 °F /  7.8 °C 39.2 °F /  4 °C 29.31 in /  992.4 hPa WSW 7.0 mph /  11.3 km/h 13.0 mph /  20.9 km/h 77 % 0.00 in /  0 mm 160 W/m2
14:29 45.9 °F /  7.7 °C 39.1 °F /  3.9 °C 29.31 in /  992.4 hPa WSW 9.0 mph /  14.5 km/h 14.0 mph /  22.5 km/h 77 % 0.00 in /  0 mm 155 W/m2
14:31 45.9 °F /  7.7 °C 39.1 °F /  3.9 °C 29.31 in /  992.4 hPa WSW 8.0 mph /  12.9 km/h 14.0 mph /  22.5 km/h 77 % 0.00 in /  0 mm 146 W/m2
14:36 45.7 °F /  7.6 °C 38.9 °F /  3.8 °C 29.31 in /  992.4 hPa SW 8.0 mph /  12.9 km/h 11.0 mph /  17.7 km/h 77 % 0.00 in /  0 mm 40 W/m2
14:39 45.5 °F /  7.5 °C 38.7 °F /  3.7 °C 29.31 in /  992.4 hPa SW 9.0 mph /  14.5 km/h 14.0 mph /  22.5 km/h 77 % 0.00 in /  0 mm 32 W/m2
14:44 45.1 °F /  7.3 °C 38.7 °F /  3.7 °C 29.31 in /  992.4 hPa SW 8.0 mph /  12.9 km/h 13.0 mph /  20.9 km/h 78 % 0.00 in /  0 mm 19 W/m2
14:45 45.0 °F /  7.2 °C 38.5 °F /  3.6 °C 29.31 in /  992.4 hPa WSW 8.0 mph /  12.9 km/h 13.0 mph /  20.9 km/h 78 % 0.00 in /  0 mm 16 W/m2
14:47 45.0 °F /  7.2 °C 38.8 °F /  3.8 °C 29.31 in /  992.4 hPa WSW 10.0 mph /  16.1 km/h 13.0 mph /  20.9 km/h 79 % 0.00 in /  0 mm 14 W/m2
14:52 44.8 °F /  7.1 °C 39.0 °F /  3.9 °C 29.32 in /  992.8 hPa West 8.0 mph /  12.9 km/h 14.0 mph /  22.5 km/h 80 % 0.00 in /  0 mm 26 W/m2
14:54 44.6 °F /  7 °C 39.1 °F /  3.9 °C 29.32 in /  992.8 hPa WSW 10.0 mph /  16.1 km/h 18.0 mph /  29 km/h 81 % 0.00 in /  0 mm 44 W/m2
14:59 44.2 °F /  6.8 °C 39.1 °F /  3.9 °C 29.31 in /  992.4 hPa SW 11.0 mph /  17.7 km/h 18.0 mph /  29 km/h 82 % 0.00 in /  0 mm 19 W/m2
15:00 44.1 °F /  6.7 °C 38.9 °F /  3.8 °C 29.31 in /  992.4 hPa SW 12.0 mph /  19.3 km/h 18.0 mph /  29 km/h 82 % 0.00 in /  0 mm 19 W/m2
15:05 43.9 °F /  6.6 °C 39.1 °F /  3.9 °C 29.31 in /  992.4 hPa SW 10.0 mph /  16.1 km/h 13.0 mph /  20.9 km/h 83 % 0.00 in /  0 mm 60 W/m2
15:10 43.5 °F /  6.4 °C 39.0 °F /  3.9 °C 29.31 in /  992.4 hPa SW 8.0 mph /  12.9 km/h 16.0 mph /  25.7 km/h 84 % 0.00 in /  0 mm 18 W/m2
15:12 43.5 °F /  6.4 °C 39.3 °F /  4.1 °C 29.31 in /  992.4 hPa SW 10.0 mph /  16.1 km/h 16.0 mph /  25.7 km/h 85 % 0.00 in /  0 mm 23 W/m2
15:13 43.5 °F /  6.4 °C 39.3 °F /  4.1 °C 29.31 in /  992.4 hPa SW 9.0 mph /  14.5 km/h 14.0 mph /  22.5 km/h 85 % 0.00 in /  0 mm 16 W/m2
15:18 43.2 °F /  6.2 °C 39.0 °F /  3.9 °C 29.31 in /  992.4 hPa SW 9.0 mph /  14.5 km/h 11.0 mph /  17.7 km/h 85 % 0.00 in /  0 mm 30 W/m2
15:19 43.2 °F /  6.2 °C 39.0 °F /  3.9 °C 29.31 in /  992.4 hPa SW 8.0 mph /  12.9 km/h 11.0 mph /  17.7 km/h 85 % 0.00 in /  0 mm 18 W/m2
15:20 43.2 °F /  6.2 °C 39.0 °F /  3.9 °C 29.31 in /  992.4 hPa SW 8.0 mph /  12.9 km/h 12.0 mph /  19.3 km/h 85 % 0.00 in /  0 mm 14 W/m2
15:25 43.2 °F /  6.2 °C 39.3 °F /  4.1 °C 29.31 in /  992.4 hPa SW 9.0 mph /  14.5 km/h 14.0 mph /  22.5 km/h 86 % 0.00 in /  0 mm 11 W/m2
15:30 43.0 °F /  6.1 °C 39.1 °F /  3.9 °C 29.31 in /  992.4 hPa WSW 7.0 mph /  11.3 km/h 12.0 mph /  19.3 km/h 86 % 0.00 in /  0 mm 9 W/m2
15:31 43.0 °F /  6.1 °C 39.1 °F /  3.9 °C 29.31 in /  992.4 hPa SW 6.0 mph /  9.7 km/h 10.0 mph /  16.1 km/h 86 % 0.00 in /  0 mm 9 W/m2
15:33 43.0 °F /  6.1 °C 39.1 °F /  3.9 °C 29.31 in /  992.4 hPa SW 8.0 mph /  12.9 km/h 12.0 mph /  19.3 km/h 86 % 0.00 in /  0 mm 9 W/m2
15:38 43.0 °F /  6.1 °C 39.4 °F /  4.1 °C 29.31 in /  992.4 hPa WSW 9.0 mph /  14.5 km/h 14.0 mph /  22.5 km/h 87 % 0.00 in /  0 mm 9 W/m2
15:41 43.0 °F /  6.1 °C 39.4 °F /  4.1 °C 29.31 in /  992.4 hPa WSW 9.0 mph /  14.5 km/h 15.0 mph /  24.1 km/h 87 % 0.00 in /  0 mm 5 W/m2
15:42 43.0 °F /  6.1 °C 39.4 °F /  4.1 °C 29.31 in /  992.4 hPa WSW 9.0 mph /  14.5 km/h 15.0 mph /  24.1 km/h 87 % 0.00 in /  0 mm 5 W/m2
15:48 43.2 °F /  6.2 °C 39.6 °F /  4.2 °C 29.32 in /  992.8 hPa WSW 10.0 mph /  16.1 km/h 14.0 mph /  22.5 km/h 87 % 0.00 in /  0 mm 0 W/m2
15:50 43.2 °F /  6.2 °C 39.6 °F /  4.2 °C 29.32 in /  992.8 hPa WSW 7.0 mph /  11.3 km/h 12.0 mph /  19.3 km/h 87 % 0.00 in /  0 mm 0 W/m2
15:55 43.3 °F /  6.3 °C 39.4 °F /  4.1 °C 29.32 in /  992.8 hPa WSW 12.0 mph /  19.3 km/h 20.0 mph /  32.2 km/h 86 % 0.00 in /  0 mm 0 W/m2
15:57 43.2 °F /  6.2 °C 39.3 °F /  4.1 °C 29.32 in /  992.8 hPa WSW 10.0 mph /  16.1 km/h 15.0 mph /  24.1 km/h 86 % 0.00 in /  0 mm 0 W/m2
16:01 43.2 °F /  6.2 °C 39.3 °F /  4.1 °C 29.31 in /  992.4 hPa WSW 7.0 mph /  11.3 km/h 12.0 mph /  19.3 km/h 86 % 0.00 in /  0 mm 0 W/m2
16:04 43.2 °F /  6.2 °C 39.3 °F /  4.1 °C 29.31 in /  992.4 hPa WSW 9.0 mph /  14.5 km/h 16.0 mph /  25.7 km/h 86 % 0.00 in /  0 mm 0 W/m2
16:09 43.0 °F /  6.1 °C 39.1 °F /  3.9 °C 29.31 in /  992.4 hPa WSW 6.0 mph /  9.7 km/h 11.0 mph /  17.7 km/h 86 % 0.00 in /  0 mm 0 W/m2
16:14 43.0 °F /  6.1 °C 39.1 °F /  3.9 °C 29.32 in /  992.8 hPa WSW 8.0 mph /  12.9 km/h 14.0 mph /  22.5 km/h 86 % 0.00 in /  0 mm 0 W/m2
16:15 43.0 °F /  6.1 °C 39.1 °F /  3.9 °C 29.32 in /  992.8 hPa SW 9.0 mph /  14.5 km/h 14.0 mph /  22.5 km/h 86 % 0.01 in /  0.25 mm 0 W/m2
16:18 43.0 °F /  6.1 °C 39.4 °F /  4.1 °C 29.32 in /  992.8 hPa West 9.0 mph /  14.5 km/h 16.0 mph /  25.7 km/h 87 % 0.01 in /  0.25 mm 0 W/m2
16:23 43.2 °F /  6.2 °C 39.6 °F /  4.2 °C 29.31 in /  992.4 hPa WSW 10.0 mph /  16.1 km/h 16.0 mph /  25.7 km/h 87 % 0.01 in /  0.25 mm 0 W/m2
16:25 43.0 °F /  6.1 °C 39.4 °F /  4.1 °C 29.32 in /  992.8 hPa WSW 12.0 mph /  19.3 km/h 20.0 mph /  32.2 km/h 87 % 0.01 in /  0.25 mm 0 W/m2
16:30 42.8 °F /  6 °C 39.5 °F /  4.2 °C 29.32 in /  992.8 hPa West 9.0 mph /  14.5 km/h 18.0 mph /  29 km/h 88 % 0.02 in /  0.51 mm 0 W/m2
16:31 42.6 °F /  5.9 °C 39.3 °F /  4.1 °C 29.32 in /  992.8 hPa West 11.0 mph /  17.7 km/h 18.0 mph /  29 km/h 88 % 0.02 in /  0.51 mm 0 W/m2
16:32 42.6 °F /  5.9 °C 39.3 °F /  4.1 °C 29.32 in /  992.8 hPa West 10.0 mph /  16.1 km/h 18.0 mph /  29 km/h 88 % 0.02 in /  0.51 mm 0 W/m2
16:37 42.4 °F /  5.8 °C 39.4 °F /  4.1 °C 29.32 in /  992.8 hPa WSW 9.0 mph /  14.5 km/h 12.0 mph /  19.3 km/h 89 % 0.03 in /  0.76 mm 0 W/m2
16:38 42.4 °F /  5.8 °C 39.4 °F /  4.1 °C 29.32 in /  992.8 hPa WSW 8.0 mph /  12.9 km/h 12.0 mph /  19.3 km/h 89 % 0.03 in /  0.76 mm 0 W/m2
16:43 42.3 °F /  5.7 °C 39.5 °F /  4.2 °C 29.33 in /  993.1 hPa WSW 10.0 mph /  16.1 km/h 15.0 mph /  24.1 km/h 90 % 0.04 in /  1.02 mm 0 W/m2
16:45 42.3 °F /  5.7 °C 39.5 °F /  4.2 °C 29.32 in /  992.8 hPa West 11.0 mph /  17.7 km/h 20.0 mph /  32.2 km/h 90 % 0.05 in /  1.27 mm 0 W/m2
16:50 42.1 °F /  5.6 °C 39.4 °F /  4.1 °C 29.32 in /  992.8 hPa West 10.0 mph /  16.1 km/h 15.0 mph /  24.1 km/h 90 % 0.06 in /  1.52 mm 0 W/m2
16:51 42.1 °F /  5.6 °C 39.4 °F /  4.1 °C 29.32 in /  992.8 hPa West 8.0 mph /  12.9 km/h 11.0 mph /  17.7 km/h 90 % 0.06 in /  1.52 mm 0 W/m2
16:55 41.9 °F /  5.5 °C 39.2 °F /  4 °C 29.32 in /  992.8 hPa West 6.0 mph /  9.7 km/h 10.0 mph /  16.1 km/h 90 % 0.06 in /  1.52 mm 0 W/m2
16:59 41.7 °F /  5.4 °C 39.3 °F /  4.1 °C 29.32 in /  992.8 hPa West 5.0 mph /  8 km/h 8.0 mph /  12.9 km/h 91 % 0.07 in /  1.78 mm 0 W/m2
17:00 41.7 °F /  5.4 °C 39.3 °F /  4.1 °C 29.32 in /  992.8 hPa West 5.0 mph /  8 km/h 7.0 mph /  11.3 km/h 91 % 0.07 in /  1.78 mm 0 W/m2
17:05 41.7 °F /  5.4 °C 39.3 °F /  4.1 °C 29.32 in /  992.8 hPa West 5.0 mph /  8 km/h 11.0 mph /  17.7 km/h 91 % 0.07 in /  1.78 mm 0 W/m2
17:07 41.7 °F /  5.4 °C 39.3 °F /  4.1 °C 29.32 in /  992.8 hPa West 7.0 mph /  11.3 km/h 11.0 mph /  17.7 km/h 91 % 0.07 in /  1.78 mm 0 W/m2
17:11 41.7 °F /  5.4 °C 39.6 °F /  4.2 °C 29.32 in /  992.8 hPa WNW 4.0 mph /  6.4 km/h 10.0 mph /  16.1 km/h 92 % 0.07 in /  1.78 mm 0 W/m2
17:16 41.7 °F /  5.4 °C 39.6 °F /  4.2 °C 29.32 in /  992.8 hPa WNW 8.0 mph /  12.9 km/h 13.0 mph /  20.9 km/h 92 % 0.06 in /  1.52 mm 0 W/m2
17:17 41.7 °F /  5.4 °C 39.6 °F /  4.2 °C 29.33 in /  993.1 hPa WNW 8.0 mph /  12.9 km/h 13.0 mph /  20.9 km/h 92 % 0.06 in /  1.52 mm 0 W/m2
17:18 41.9 °F /  5.5 °C 39.7 °F /  4.3 °C 29.33 in /  993.1 hPa WNW 8.0 mph /  12.9 km/h 13.0 mph /  20.9 km/h 92 % 0.06 in /  1.52 mm 0 W/m2
17:23 42.1 °F /  5.6 °C 40.2 °F /  4.6 °C 29.33 in /  993.1 hPa WNW 11.0 mph /  17.7 km/h 25.0 mph /  40.2 km/h 93 % 0.06 in /  1.52 mm 0 W/m2
17:28 42.4 °F /  5.8 °C 40.6 °F /  4.8 °C 29.34 in /  993.5 hPa WNW 13.0 mph /  20.9 km/h 22.0 mph /  35.4 km/h 93 % 0.06 in /  1.52 mm 0 W/m2
17:33 42.4 °F /  5.8 °C 40.6 °F /  4.8 °C 29.35 in /  993.8 hPa WNW 14.0 mph /  22.5 km/h 23.0 mph /  37 km/h 93 % 0.05 in /  1.27 mm 0 W/m2
17:37 42.4 °F /  5.8 °C 40.6 °F /  4.8 °C 29.35 in /  993.8 hPa WNW 14.0 mph /  22.5 km/h 22.0 mph /  35.4 km/h 93 % 0.04 in /  1.02 mm 0 W/m2
17:42 42.4 °F /  5.8 °C 40.6 °F /  4.8 °C 29.36 in /  994.1 hPa WNW 10.0 mph /  16.1 km/h 21.0 mph /  33.8 km/h 93 % 0.03 in /  0.76 mm 0 W/m2
17:47 42.4 °F /  5.8 °C 40.6 °F /  4.8 °C 29.37 in /  994.5 hPa WNW 14.0 mph /  22.5 km/h 21.0 mph /  33.8 km/h 93 % 0.02 in /  0.51 mm 0 W/m2
17:51 42.4 °F /  5.8 °C 40.6 °F /  4.8 °C 29.37 in /  994.5 hPa WNW 10.0 mph /  16.1 km/h 19.0 mph /  30.6 km/h 93 % 0.02 in /  0.51 mm 0 W/m2
17:53 42.4 °F /  5.8 °C 40.6 °F /  4.8 °C 29.38 in /  994.8 hPa NW 12.0 mph /  19.3 km/h 19.0 mph /  30.6 km/h 93 % 0.01 in /  0.25 mm 0 W/m2
17:58 42.4 °F /  5.8 °C 40.3 °F /  4.6 °C 29.38 in /  994.8 hPa WNW 12.0 mph /  19.3 km/h 24.0 mph /  38.6 km/h 92 % 0.00 in /  0 mm 0 W/m2
18:03 42.4 °F /  5.8 °C 40.3 °F /  4.6 °C 29.39 in /  995.1 hPa WNW 13.0 mph /  20.9 km/h 23.0 mph /  37 km/h 92 % 0.00 in /  0 mm 0 W/m2
18:05 42.4 °F /  5.8 °C 40.3 °F /  4.6 °C 29.39 in /  995.1 hPa NW 14.0 mph /  22.5 km/h 22.0 mph /  35.4 km/h 92 % 0.00 in /  0 mm 0 W/m2
18:07 42.4 °F /  5.8 °C 40.3 °F /  4.6 °C 29.39 in /  995.1 hPa WNW 15.0 mph /  24.1 km/h 26.0 mph /  41.8 km/h 92 % 0.00 in /  0 mm 0 W/m2
18:12 42.4 °F /  5.8 °C 40.3 °F /  4.6 °C 29.39 in /  995.1 hPa WNW 12.0 mph /  19.3 km/h 20.0 mph /  32.2 km/h 92 % 0.00 in /  0 mm 0 W/m2
18:17 42.4 °F /  5.8 °C 40.0 °F /  4.4 °C 29.40 in /  995.5 hPa WNW 12.0 mph /  19.3 km/h 20.0 mph /  32.2 km/h 91 % 0.00 in /  0 mm 0 W/m2
18:18 42.4 °F /  5.8 °C 40.0 °F /  4.4 °C 29.40 in /  995.5 hPa WNW 11.0 mph /  17.7 km/h 18.0 mph /  29 km/h 91 % 0.00 in /  0 mm 0 W/m2
18:23 42.4 °F /  5.8 °C 40.0 °F /  4.4 °C 29.41 in /  995.8 hPa WNW 14.0 mph /  22.5 km/h 24.0 mph /  38.6 km/h 91 % 0.00 in /  0 mm 0 W/m2
18:28 42.4 °F /  5.8 °C 40.3 °F /  4.6 °C 29.42 in /  996.2 hPa WNW 14.0 mph /  22.5 km/h 27.0 mph /  43.5 km/h 92 % 0.00 in /  0 mm 0 W/m2
18:33 42.6 °F /  5.9 °C 40.2 °F /  4.6 °C 29.42 in /  996.2 hPa WNW 12.0 mph /  19.3 km/h 22.0 mph /  35.4 km/h 91 % 0.00 in /  0 mm 0 W/m2
18:34 42.6 °F /  5.9 °C 40.2 °F /  4.6 °C 29.42 in /  996.2 hPa WNW 11.0 mph /  17.7 km/h 21.0 mph /  33.8 km/h 91 % 0.00 in /  0 mm 0 W/m2
18:39 42.6 °F /  5.9 °C 40.2 °F /  4.6 °C 29.43 in /  996.5 hPa NW 11.0 mph /  17.7 km/h 20.0 mph /  32.2 km/h 91 % 0.00 in /  0 mm 0 W/m2
18:44 42.8 °F /  6 °C 40.4 °F /  4.7 °C 29.43 in /  996.5 hPa WNW 12.0 mph /  19.3 km/h 20.0 mph /  32.2 km/h 91 % 0.00 in /  0 mm 0 W/m2
18:49 42.8 °F /  6 °C 40.4 °F /  4.7 °C 29.44 in /  996.8 hPa WNW 13.0 mph /  20.9 km/h 21.0 mph /  33.8 km/h 91 % 0.00 in /  0 mm 0 W/m2
18:54 42.8 °F /  6 °C 40.1 °F /  4.5 °C 29.45 in /  997.2 hPa WNW 14.0 mph /  22.5 km/h 22.0 mph /  35.4 km/h 90 % 0.00 in /  0 mm 0 W/m2
18:59 42.8 °F /  6 °C 40.1 °F /  4.5 °C 29.46 in /  997.5 hPa WNW 12.0 mph /  19.3 km/h 18.0 mph /  29 km/h 90 % 0.00 in /  0 mm 0 W/m2
19:00 43.0 °F /  6.1 °C 40.2 °F /  4.6 °C 29.46 in /  997.5 hPa WNW 12.0 mph /  19.3 km/h 18.0 mph /  29 km/h 90 % 0.00 in /  0 mm 0 W/m2
19:05 42.8 °F /  6 °C 40.1 °F /  4.5 °C 29.46 in /  997.5 hPa WNW 11.0 mph /  17.7 km/h 18.0 mph /  29 km/h 90 % 0.00 in /  0 mm 0 W/m2
19:07 43.0 °F /  6.1 °C 40.2 °F /  4.6 °C 29.47 in /  997.9 hPa WNW 11.0 mph /  17.7 km/h 20.0 mph /  32.2 km/h 90 % 0.00 in /  0 mm 0 W/m2
19:10 43.0 °F /  6.1 °C 40.2 °F /  4.6 °C 29.47 in /  997.9 hPa NW 13.0 mph /  20.9 km/h 23.0 mph /  37 km/h 90 % 0.00 in /  0 mm 0 W/m2
19:14 43.0 °F /  6.1 °C 40.2 °F /  4.6 °C 29.47 in /  997.9 hPa WNW 12.0 mph /  19.3 km/h 19.0 mph /  30.6 km/h 90 % 0.00 in /  0 mm 0 W/m2
19:19 43.0 °F /  6.1 °C 40.2 °F /  4.6 °C 29.48 in /  998.2 hPa WNW 10.0 mph /  16.1 km/h 19.0 mph /  30.6 km/h 90 % 0.00 in /  0 mm 0 W/m2
19:21 43.0 °F /  6.1 °C 40.2 °F /  4.6 °C 29.48 in /  998.2 hPa NW 9.0 mph /  14.5 km/h 20.0 mph /  32.2 km/h 90 % 0.00 in /  0 mm 0 W/m2
19:26 43.0 °F /  6.1 °C 40.2 °F /  4.6 °C 29.49 in /  998.5 hPa WNW 11.0 mph /  17.7 km/h 20.0 mph /  32.2 km/h 90 % 0.00 in /  0 mm 0 W/m2
19:28 43.0 °F /  6.1 °C 40.2 °F /  4.6 °C 29.49 in /  998.5 hPa WNW 11.0 mph /  17.7 km/h 16.0 mph /  25.7 km/h 90 % 0.00 in /  0 mm 0 W/m2
19:33 43.0 °F /  6.1 °C 40.0 °F /  4.4 °C 29.50 in /  998.9 hPa WNW 11.0 mph /  17.7 km/h 20.0 mph /  32.2 km/h 89 % 0.00 in /  0 mm 0 W/m2
19:34 43.0 °F /  6.1 °C 40.0 °F /  4.4 °C 29.50 in /  998.9 hPa WNW 11.0 mph /  17.7 km/h 18.0 mph /  29 km/h 89 % 0.00 in /  0 mm 0 W/m2
19:35 42.8 °F /  6 °C 39.8 °F /  4.3 °C 29.50 in /  998.9 hPa WNW 10.0 mph /  16.1 km/h 15.0 mph /  24.1 km/h 89 % 0.00 in /  0 mm 0 W/m2
19:40 42.6 °F /  5.9 °C 39.6 °F /  4.2 °C 29.50 in /  998.9 hPa WNW 11.0 mph /  17.7 km/h 20.0 mph /  32.2 km/h 89 % 0.00 in /  0 mm 0 W/m2
19:44 42.6 °F /  5.9 °C 39.6 °F /  4.2 °C 29.51 in /  999.2 hPa NW 9.0 mph /  14.5 km/h 13.0 mph /  20.9 km/h 89 % 0.00 in /  0 mm 0 W/m2
19:47 42.4 °F /  5.8 °C 39.4 °F /  4.1 °C 29.51 in /  999.2 hPa NW 10.0 mph /  16.1 km/h 16.0 mph /  25.7 km/h 89 % 0.00 in /  0 mm 0 W/m2
19:52 42.4 °F /  5.8 °C 39.4 °F /  4.1 °C 29.51 in /  999.2 hPa WNW 11.0 mph /  17.7 km/h 21.0 mph /  33.8 km/h 89 % 0.00 in /  0 mm 0 W/m2
19:57 42.4 °F /  5.8 °C 39.4 °F /  4.1 °C 29.51 in /  999.2 hPa WNW 10.0 mph /  16.1 km/h 14.0 mph /  22.5 km/h 89 % 0.00 in /  0 mm 0 W/m2
20:00 42.4 °F /  5.8 °C 39.4 °F /  4.1 °C 29.52 in /  999.5 hPa WNW 14.0 mph /  22.5 km/h 25.0 mph /  40.2 km/h 89 % 0.00 in /  0 mm 0 W/m2
20:02 42.6 °F /  5.9 °C 39.6 °F /  4.2 °C 29.52 in /  999.5 hPa WNW 14.0 mph /  22.5 km/h 25.0 mph /  40.2 km/h 89 % 0.00 in /  0 mm 0 W/m2
20:07 42.6 °F /  5.9 °C 39.6 °F /  4.2 °C 29.52 in /  999.5 hPa WNW 16.0 mph /  25.7 km/h 24.0 mph /  38.6 km/h 89 % 0.00 in /  0 mm 0 W/m2
20:08 42.6 °F /  5.9 °C 39.6 °F /  4.2 °C 29.52 in /  999.5 hPa WNW 15.0 mph /  24.1 km/h 23.0 mph /  37 km/h 89 % 0.00 in /  0 mm 0 W/m2
20:13 42.6 °F /  5.9 °C 39.6 °F /  4.2 °C 29.53 in /  999.9 hPa WNW 15.0 mph /  24.1 km/h 25.0 mph /  40.2 km/h 89 % 0.00 in /  0 mm 0 W/m2
20:18 42.6 °F /  5.9 °C 39.3 °F /  4.1 °C 29.53 in /  999.9 hPa WNW 14.0 mph /  22.5 km/h 26.0 mph /  41.8 km/h 88 % 0.00 in /  0 mm 0 W/m2
20:19 42.6 °F /  5.9 °C 39.3 °F /  4.1 °C 29.53 in /  999.9 hPa WNW 14.0 mph /  22.5 km/h 26.0 mph /  41.8 km/h 88 % 0.00 in /  0 mm 0 W/m2
20:24 42.4 °F /  5.8 °C 39.1 °F /  3.9 °C 29.53 in /  999.9 hPa WNW 14.0 mph /  22.5 km/h 24.0 mph /  38.6 km/h 88 % 0.00 in /  0 mm 0 W/m2
20:29 42.4 °F /  5.8 °C 39.1 °F /  3.9 °C 29.54 in /  1000.2 hPa WNW 15.0 mph /  24.1 km/h 25.0 mph /  40.2 km/h 88 % 0.00 in /  0 mm 0 W/m2
20:33 42.3 °F /  5.7 °C 39.0 °F /  3.9 °C 29.54 in /  1000.2 hPa WNW 17.0 mph /  27.4 km/h 25.0 mph /  40.2 km/h 88 % 0.00 in /  0 mm 0 W/m2
20:34 42.3 °F /  5.7 °C 38.7 °F /  3.7 °C 29.54 in /  1000.2 hPa WNW 17.0 mph /  27.4 km/h 28.0 mph /  45.1 km/h 87 % 0.00 in /  0 mm 0 W/m2
20:39 42.1 °F /  5.6 °C 38.5 °F /  3.6 °C 29.55 in /  1000.6 hPa WNW 19.0 mph /  30.6 km/h 27.0 mph /  43.5 km/h 87 % 0.00 in /  0 mm 0 W/m2
20:40 42.1 °F /  5.6 °C 38.5 °F /  3.6 °C 29.55 in /  1000.6 hPa WNW 18.0 mph /  29 km/h 27.0 mph /  43.5 km/h 87 % 0.00 in /  0 mm 0 W/m2
20:45 42.1 °F /  5.6 °C 38.5 °F /  3.6 °C 29.55 in /  1000.6 hPa WNW 17.0 mph /  27.4 km/h 28.0 mph /  45.1 km/h 87 % 0.00 in /  0 mm 0 W/m2
20:46 42.1 °F /  5.6 °C 38.5 °F /  3.6 °C 29.55 in /  1000.6 hPa WNW 16.0 mph /  25.7 km/h 28.0 mph /  45.1 km/h 87 % 0.00 in /  0 mm 0 W/m2
20:50 41.7 °F /  5.4 °C 38.1 °F /  3.4 °C 29.56 in /  1000.9 hPa WNW 11.0 mph /  17.7 km/h 22.0 mph /  35.4 km/h 87 % 0.00 in /  0 mm 0 W/m2
20:51 41.7 °F /  5.4 °C 38.1 °F /  3.4 °C 29.56 in /  1000.9 hPa WNW 11.0 mph /  17.7 km/h 20.0 mph /  32.2 km/h 87 % 0.00 in /  0 mm 0 W/m2
20:56 41.5 °F /  5.3 °C 38.0 °F /  3.3 °C 29.56 in /  1000.9 hPa WNW 11.0 mph /  17.7 km/h 19.0 mph /  30.6 km/h 87 % 0.00 in /  0 mm 0 W/m2
21:01 41.5 °F /  5.3 °C 38.0 °F /  3.3 °C 29.56 in /  1000.9 hPa WNW 13.0 mph /  20.9 km/h 22.0 mph /  35.4 km/h 87 % 0.00 in /  0 mm 0 W/m2
21:03 41.4 °F /  5.2 °C 37.8 °F /  3.2 °C 29.56 in /  1000.9 hPa WNW 14.0 mph /  22.5 km/h 24.0 mph /  38.6 km/h 87 % 0.00 in /  0 mm 0 W/m2
21:06 41.4 °F /  5.2 °C 37.8 °F /  3.2 °C 29.56 in /  1000.9 hPa WNW 11.0 mph /  17.7 km/h 18.0 mph /  29 km/h 87 % 0.00 in /  0 mm 0 W/m2
21:11 41.4 °F /  5.2 °C 37.5 °F /  3.1 °C 29.56 in /  1000.9 hPa WNW 14.0 mph /  22.5 km/h 21.0 mph /  33.8 km/h 86 % 0.00 in /  0 mm 0 W/m2
21:12 41.4 °F /  5.2 °C 37.5 °F /  3.1 °C 29.57 in /  1001.2 hPa WNW 12.0 mph /  19.3 km/h 20.0 mph /  32.2 km/h 86 % 0.00 in /  0 mm 0 W/m2
21:16 41.2 °F /  5.1 °C 37.3 °F /  2.9 °C 29.57 in /  1001.2 hPa WNW 14.0 mph /  22.5 km/h 21.0 mph /  33.8 km/h 86 % 0.00 in /  0 mm 0 W/m2
21:19 41.2 °F /  5.1 °C 37.3 °F /  2.9 °C 29.57 in /  1001.2 hPa WNW 16.0 mph /  25.7 km/h 23.0 mph /  37 km/h 86 % 0.00 in /  0 mm 0 W/m2
21:20 41.2 °F /  5.1 °C 37.3 °F /  2.9 °C 29.57 in /  1001.2 hPa WNW 16.0 mph /  25.7 km/h 23.0 mph /  37 km/h 86 % 0.00 in /  0 mm 0 W/m2
21:25 41.4 °F /  5.2 °C 37.2 °F /  2.9 °C 29.57 in /  1001.2 hPa WNW 13.0 mph /  20.9 km/h 21.0 mph /  33.8 km/h 85 % 0.00 in /  0 mm 0 W/m2
21:26 41.4 °F /  5.2 °C 37.2 °F /  2.9 °C 29.57 in /  1001.2 hPa WNW 12.0 mph /  19.3 km/h 20.0 mph /  32.2 km/h 85 % 0.00 in /  0 mm 0 W/m2
21:31 41.4 °F /  5.2 °C 37.2 °F /  2.9 °C 29.58 in /  1001.6 hPa WNW 16.0 mph /  25.7 km/h 26.0 mph /  41.8 km/h 85 % 0.00 in /  0 mm 0 W/m2
21:32 41.4 °F /  5.2 °C 37.2 °F /  2.9 °C 29.58 in /  1001.6 hPa WNW 17.0 mph /  27.4 km/h 26.0 mph /  41.8 km/h 85 % 0.00 in /  0 mm 0 W/m2
21:37 41.4 °F /  5.2 °C 36.9 °F /  2.7 °C 29.58 in /  1001.6 hPa WNW 13.0 mph /  20.9 km/h 19.0 mph /  30.6 km/h 84 % 0.00 in /  0 mm 0 W/m2
21:38 41.4 °F /  5.2 °C 37.2 °F /  2.9 °C 29.58 in /  1001.6 hPa WNW 13.0 mph /  20.9 km/h 20.0 mph /  32.2 km/h 85 % 0.00 in /  0 mm 0 W/m2
21:43 41.5 °F /  5.3 °C 37.4 °F /  3 °C 29.59 in /  1001.9 hPa WNW 18.0 mph /  29 km/h 27.0 mph /  43.5 km/h 85 % 0.00 in /  0 mm 0 W/m2
21:44 41.5 °F /  5.3 °C 37.4 °F /  3 °C 29.59 in /  1001.9 hPa WNW 18.0 mph /  29 km/h 27.0 mph /  43.5 km/h 85 % 0.00 in /  0 mm 0 W/m2
21:49 41.7 °F /  5.4 °C 37.5 °F /  3.1 °C 29.59 in /  1001.9 hPa WNW 15.0 mph /  24.1 km/h 23.0 mph /  37 km/h 85 % 0.00 in /  0 mm 0 W/m2
21:50 41.7 °F /  5.4 °C 37.5 °F /  3.1 °C 29.59 in /  1001.9 hPa West 15.0 mph /  24.1 km/h 23.0 mph /  37 km/h 85 % 0.00 in /  0 mm 0 W/m2
21:55 41.7 °F /  5.4 °C 37.8 °F /  3.2 °C 29.59 in /  1001.9 hPa West 15.0 mph /  24.1 km/h 21.0 mph /  33.8 km/h 86 % 0.00 in /  0 mm 0 W/m2
21:56 41.7 °F /  5.4 °C 37.8 °F /  3.2 °C 29.59 in /  1001.9 hPa WNW 15.0 mph /  24.1 km/h 22.0 mph /  35.4 km/h 86 % 0.00 in /  0 mm 0 W/m2
22:01 41.7 °F /  5.4 °C 37.8 °F /  3.2 °C 29.60 in /  1002.3 hPa West 17.0 mph /  27.4 km/h 25.0 mph /  40.2 km/h 86 % 0.00 in /  0 mm 0 W/m2
22:07 41.5 °F /  5.3 °C 37.7 °F /  3.2 °C 29.60 in /  1002.3 hPa WNW 15.0 mph /  24.1 km/h 25.0 mph /  40.2 km/h 86 % 0.00 in /  0 mm 0 W/m2
22:08 41.7 °F /  5.4 °C 37.8 °F /  3.2 °C 29.60 in /  1002.3 hPa WNW 16.0 mph /  25.7 km/h 25.0 mph /  40.2 km/h 86 % 0.00 in /  0 mm 0 W/m2
22:10 41.5 °F /  5.3 °C 37.7 °F /  3.2 °C 29.60 in /  1002.3 hPa WNW 15.0 mph /  24.1 km/h 22.0 mph /  35.4 km/h 86 % 0.00 in /  0 mm 0 W/m2
22:14 41.7 °F /  5.4 °C 37.8 °F /  3.2 °C 29.61 in /  1002.6 hPa WNW 15.0 mph /  24.1 km/h 20.0 mph /  32.2 km/h 86 % 0.00 in /  0 mm 0 W/m2
22:15 41.7 °F /  5.4 °C 37.8 °F /  3.2 °C 29.61 in /  1002.6 hPa WNW 14.0 mph /  22.5 km/h 20.0 mph /  32.2 km/h 86 % 0.00 in /  0 mm 0 W/m2
22:17 41.7 °F /  5.4 °C 37.8 °F /  3.2 °C 29.61 in /  1002.6 hPa WNW 14.0 mph /  22.5 km/h 22.0 mph /  35.4 km/h 86 % 0.00 in /  0 mm 0 W/m2
22:21 41.7 °F /  5.4 °C 37.8 °F /  3.2 °C 29.61 in /  1002.6 hPa WNW 14.0 mph /  22.5 km/h 22.0 mph /  35.4 km/h 86 % 0.00 in /  0 mm 0 W/m2
22:26 41.7 °F /  5.4 °C 37.8 °F /  3.2 °C 29.62 in /  1002.9 hPa WNW 15.0 mph /  24.1 km/h 23.0 mph /  37 km/h 86 % 0.00 in /  0 mm 0 W/m2
22:27 41.7 °F /  5.4 °C 37.8 °F /  3.2 °C 29.62 in /  1002.9 hPa WNW 14.0 mph /  22.5 km/h 23.0 mph /  37 km/h 86 % 0.00 in /  0 mm 0 W/m2
22:32 41.7 °F /  5.4 °C 37.8 °F /  3.2 °C 29.62 in /  1002.9 hPa West 15.0 mph /  24.1 km/h 23.0 mph /  37 km/h 86 % 0.00 in /  0 mm 0 W/m2
22:34 41.7 °F /  5.4 °C 37.8 °F /  3.2 °C 29.62 in /  1002.9 hPa West 15.0 mph /  24.1 km/h 23.0 mph /  37 km/h 86 % 0.00 in /  0 mm 0 W/m2
22:39 41.7 °F /  5.4 °C 37.8 °F /  3.2 °C 29.63 in /  1003.3 hPa West 13.0 mph /  20.9 km/h 24.0 mph /  38.6 km/h 86 % 0.00 in /  0 mm 0 W/m2
22:44 41.7 °F /  5.4 °C 37.8 °F /  3.2 °C 29.64 in /  1003.6 hPa WNW 15.0 mph /  24.1 km/h 26.0 mph /  41.8 km/h 86 % 0.00 in /  0 mm 0 W/m2
22:45 41.7 °F /  5.4 °C 37.8 °F /  3.2 °C 29.64 in /  1003.6 hPa WNW 13.0 mph /  20.9 km/h 21.0 mph /  33.8 km/h 86 % 0.00 in /  0 mm 0 W/m2
22:50 41.7 °F /  5.4 °C 38.1 °F /  3.4 °C 29.64 in /  1003.6 hPa WNW 13.0 mph /  20.9 km/h 19.0 mph /  30.6 km/h 87 % 0.00 in /  0 mm 0 W/m2
22:53 41.7 °F /  5.4 °C 38.1 °F /  3.4 °C 29.65 in /  1003.9 hPa WNW 13.0 mph /  20.9 km/h 19.0 mph /  30.6 km/h 87 % 0.00 in /  0 mm 0 W/m2
22:57 41.9 °F /  5.5 °C 38.3 °F /  3.5 °C 29.65 in /  1003.9 hPa WNW 11.0 mph /  17.7 km/h 19.0 mph /  30.6 km/h 87 % 0.00 in /  0 mm 0 W/m2
23:01 42.1 °F /  5.6 °C 38.5 °F /  3.6 °C 29.65 in /  1003.9 hPa WNW 12.0 mph /  19.3 km/h 19.0 mph /  30.6 km/h 87 % 0.00 in /  0 mm 0 W/m2
23:06 42.1 °F /  5.6 °C 38.5 °F /  3.6 °C 29.66 in /  1004.3 hPa WNW 11.0 mph /  17.7 km/h 20.0 mph /  32.2 km/h 87 % 0.00 in /  0 mm 0 W/m2
23:07 42.1 °F /  5.6 °C 38.5 °F /  3.6 °C 29.66 in /  1004.3 hPa WNW 11.0 mph /  17.7 km/h 20.0 mph /  32.2 km/h 87 % 0.00 in /  0 mm 0 W/m2
23:09 42.1 °F /  5.6 °C 38.5 °F /  3.6 °C 29.66 in /  1004.3 hPa WNW 9.0 mph /  14.5 km/h 16.0 mph /  25.7 km/h 87 % 0.00 in /  0 mm 0 W/m2
23:13 42.1 °F /  5.6 °C 38.5 °F /  3.6 °C 29.66 in /  1004.3 hPa WNW 14.0 mph /  22.5 km/h 23.0 mph /  37 km/h 87 % 0.00 in /  0 mm 0 W/m2
23:18 42.3 °F /  5.7 °C 38.4 °F /  3.6 °C 29.66 in /  1004.3 hPa WNW 13.0 mph /  20.9 km/h 23.0 mph /  37 km/h 86 % 0.00 in /  0 mm 0 W/m2
23:20 42.4 °F /  5.8 °C 38.5 °F /  3.6 °C 29.66 in /  1004.3 hPa WNW 15.0 mph /  24.1 km/h 25.0 mph /  40.2 km/h 86 % 0.00 in /  0 mm 0 W/m2
23:25 42.4 °F /  5.8 °C 38.5 °F /  3.6 °C 29.66 in /  1004.3 hPa WNW 17.0 mph /  27.4 km/h 27.0 mph /  43.5 km/h 86 % 0.00 in /  0 mm 0 W/m2
23:28 42.4 °F /  5.8 °C 38.2 °F /  3.4 °C 29.67 in /  1004.6 hPa WNW 19.0 mph /  30.6 km/h 27.0 mph /  43.5 km/h 85 % 0.00 in /  0 mm 0 W/m2
23:31 42.6 °F /  5.9 °C 38.4 °F /  3.6 °C 29.67 in /  1004.6 hPa WNW 14.0 mph /  22.5 km/h 23.0 mph /  37 km/h 85 % 0.00 in /  0 mm 0 W/m2
23:35 42.6 °F /  5.9 °C 38.4 °F /  3.6 °C 29.67 in /  1004.6 hPa WNW 12.0 mph /  19.3 km/h 23.0 mph /  37 km/h 85 % 0.00 in /  0 mm 0 W/m2
23:38 42.6 °F /  5.9 °C 38.4 °F /  3.6 °C 29.67 in /  1004.6 hPa West 12.0 mph /  19.3 km/h 20.0 mph /  32.2 km/h 85 % 0.00 in /  0 mm 0 W/m2
23:41 42.6 °F /  5.9 °C 38.4 °F /  3.6 °C 29.67 in /  1004.6 hPa WNW 13.0 mph /  20.9 km/h 21.0 mph /  33.8 km/h 85 % 0.00 in /  0 mm 0 W/m2
23:46 42.6 °F /  5.9 °C 38.4 °F /  3.6 °C 29.68 in /  1005 hPa WNW 12.0 mph /  19.3 km/h 24.0 mph /  38.6 km/h 85 % 0.00 in /  0 mm 0 W/m2
23:51 42.6 °F /  5.9 °C 38.4 °F /  3.6 °C 29.68 in /  1005 hPa WNW 12.0 mph /  19.3 km/h 20.0 mph /  32.2 km/h 85 % 0.00 in /  0 mm 0 W/m2
23:53 42.8 °F /  6 °C 38.6 °F /  3.7 °C 29.68 in /  1005 hPa WNW 15.0 mph /  24.1 km/h 23.0 mph /  37 km/h 85 % 0.00 in /  0 mm 0 W/m2
23:56 42.8 °F /  6 °C 38.6 °F /  3.7 °C 29.67 in /  1004.6 hPa WNW 11.0 mph /  17.7 km/h 21.0 mph /  33.8 km/h 85 % 0.00 in /  0 mm 0 W/m2
Delerius-Weather
Compliments of Weather Underground - 3 mb

Data updates at regular intervals.